<?xml version="1.0" encoding="UTF-8" standalone="no" ?>
<gpx xmlns="http://www.topografix.com/GPX/1/1" xmlns:xsi="http://www.w3.org/2001/XMLSchema-instance" xsi:schemaLocation="http://www.topografix.com/GPX/1/1 http://www.topografix.com/GPX/1/1/gpx.xsd" version="1.1" creator="VisuGPX - https://www.visugpx.com">
  <metadata>
    <name>Loudervielle-Col de Peyresourde-Port de Bales Moyenne 15.0 Km/h validée</name>
    <desc><![CDATA[Moyenne 15.0 Km/h   Temps: 2H  x2 (allé/retour)]]></desc>
  </metadata>
  <trk>
    <name><![CDATA[Loudervielle-Col de Peyresourde-Port de Bales_1]]></name>
    <extensions>
      <line xmlns="http://www.topografix.com/GPX/gpx_style/0/2">
        <color>0000FF</color>
        <width>4</width>
      </line>
    </extensions>
    <trkseg>
      <trkpt lat="42.80884" lon="0.42119">
        <ele>1158.8</ele>
        <time>2024-07-24T22:00:00.000Z</time>
      </trkpt>
      <trkpt lat="42.8089" lon="0.42132">
        <ele>1160.9</ele>
        <time>2024-07-24T22:00:04.897Z</time>
      </trkpt>
      <trkpt lat="42.80884" lon="0.42133">
        <ele>1162.3</ele>
        <time>2024-07-24T22:00:08.037Z</time>
      </trkpt>
      <trkpt lat="42.80881" lon="0.42136">
        <ele>1163.4</ele>
        <time>2024-07-24T22:00:10.553Z</time>
      </trkpt>
      <trkpt lat="42.80878" lon="0.42144">
        <ele>1165.3</ele>
        <time>2024-07-24T22:00:14.876Z</time>
      </trkpt>
      <trkpt lat="42.80878" lon="0.42148">
        <ele>1165.9</ele>
        <time>2024-07-24T22:00:16.244Z</time>
        <extensions>
          <visugpx:TrkExtension xmlns:visugpx="https://www.visugpx.com/editgpx/">
            <visugpx:node>1</visugpx:node>
            </visugpx:TrkExtension>
        </extensions>
      </trkpt>
      <trkpt lat="42.80882" lon="0.42158">
        <ele>1166.6</ele>
        <time>2024-07-24T22:00:18.744Z</time>
      </trkpt>
      <trkpt lat="42.80889" lon="0.42168">
        <ele>1166.4</ele>
        <time>2024-07-24T22:00:20.920Z</time>
      </trkpt>
      <trkpt lat="42.80922" lon="0.42203">
        <ele>1170.4</ele>
        <time>2024-07-24T22:00:33.951Z</time>
      </trkpt>
      <trkpt lat="42.80969" lon="0.42242">
        <ele>1175.2</ele>
        <time>2024-07-24T22:00:50.606Z</time>
      </trkpt>
      <trkpt lat="42.80981" lon="0.42255">
        <ele>1176.9</ele>
        <time>2024-07-24T22:00:55.645Z</time>
      </trkpt>
      <trkpt lat="42.81012" lon="0.42322">
        <ele>1181.1</ele>
        <time>2024-07-24T22:01:12.362Z</time>
        <extensions>
          <visugpx:TrkExtension xmlns:visugpx="https://www.visugpx.com/editgpx/">
            <visugpx:node>2</visugpx:node>
            </visugpx:TrkExtension>
        </extensions>
      </trkpt>
      <trkpt lat="42.81061" lon="0.42421">
        <ele>1189.2</ele>
        <time>2024-07-24T22:01:39.363Z</time>
      </trkpt>
      <trkpt lat="42.81065" lon="0.42434">
        <ele>1190.2</ele>
        <time>2024-07-24T22:01:42.598Z</time>
      </trkpt>
      <trkpt lat="42.81067" lon="0.42454">
        <ele>1192.5</ele>
        <time>2024-07-24T22:01:48.317Z</time>
        <extensions>
          <visugpx:TrkExtension xmlns:visugpx="https://www.visugpx.com/editgpx/">
            <visugpx:node>3</visugpx:node>
            </visugpx:TrkExtension>
        </extensions>
      </trkpt>
      <trkpt lat="42.81067" lon="0.42479">
        <ele>1195.3</ele>
        <time>2024-07-24T22:01:55.332Z</time>
      </trkpt>
      <trkpt lat="42.81071" lon="0.42496">
        <ele>1195.3</ele>
        <time>2024-07-24T22:01:58.317Z</time>
      </trkpt>
      <trkpt lat="42.81075" lon="0.42502">
        <ele>1195.8</ele>
        <time>2024-07-24T22:02:00.098Z</time>
      </trkpt>
      <trkpt lat="42.81083" lon="0.42509">
        <ele>1196.6</ele>
        <time>2024-07-24T22:02:02.945Z</time>
      </trkpt>
      <trkpt lat="42.81089" lon="0.42512">
        <ele>1197.3</ele>
        <time>2024-07-24T22:02:05.036Z</time>
      </trkpt>
      <trkpt lat="42.81115" lon="0.42518">
        <ele>1199</ele>
        <time>2024-07-24T22:02:12.426Z</time>
      </trkpt>
      <trkpt lat="42.81131" lon="0.42526">
        <ele>1201</ele>
        <time>2024-07-24T22:02:18.158Z</time>
      </trkpt>
      <trkpt lat="42.81146" lon="0.42541">
        <ele>1202.3</ele>
        <time>2024-07-24T22:02:23.467Z</time>
      </trkpt>
      <trkpt lat="42.81158" lon="0.42561">
        <ele>1203.3</ele>
        <time>2024-07-24T22:02:28.577Z</time>
        <extensions>
          <visugpx:TrkExtension xmlns:visugpx="https://www.visugpx.com/editgpx/">
            <visugpx:node>4</visugpx:node>
            </visugpx:TrkExtension>
        </extensions>
      </trkpt>
      <trkpt lat="42.8117" lon="0.42593">
        <ele>1206.4</ele>
        <time>2024-07-24T22:02:37.451Z</time>
      </trkpt>
      <trkpt lat="42.81179" lon="0.42633">
        <ele>1209.6</ele>
        <time>2024-07-24T22:02:47.307Z</time>
      </trkpt>
      <trkpt lat="42.81185" lon="0.42671">
        <ele>1212.9</ele>
        <time>2024-07-24T22:02:56.842Z</time>
      </trkpt>
      <trkpt lat="42.8119" lon="0.42688">
        <ele>1214.1</ele>
        <time>2024-07-24T22:03:00.938Z</time>
      </trkpt>
      <trkpt lat="42.81198" lon="0.42707">
        <ele>1215.8</ele>
        <time>2024-07-24T22:03:06.126Z</time>
      </trkpt>
      <trkpt lat="42.81207" lon="0.42722">
        <ele>1217.2</ele>
        <time>2024-07-24T22:03:10.600Z</time>
      </trkpt>
      <trkpt lat="42.81231" lon="0.42754">
        <ele>1219.8</ele>
        <time>2024-07-24T22:03:20.428Z</time>
        <extensions>
          <visugpx:TrkExtension xmlns:visugpx="https://www.visugpx.com/editgpx/">
            <visugpx:node>5</visugpx:node>
            </visugpx:TrkExtension>
        </extensions>
      </trkpt>
      <trkpt lat="42.81252" lon="0.42778">
        <ele>1221.9</ele>
        <time>2024-07-24T22:03:28.429Z</time>
      </trkpt>
      <trkpt lat="42.81261" lon="0.42784">
        <ele>1222.1</ele>
        <time>2024-07-24T22:03:30.859Z</time>
      </trkpt>
      <trkpt lat="42.81276" lon="0.42789">
        <ele>1222.1</ele>
        <time>2024-07-24T22:03:34.378Z</time>
      </trkpt>
      <trkpt lat="42.81294" lon="0.42792">
        <ele>1222.6</ele>
        <time>2024-07-24T22:03:38.884Z</time>
      </trkpt>
      <trkpt lat="42.81301" lon="0.42796">
        <ele>1223.5</ele>
        <time>2024-07-24T22:03:41.448Z</time>
      </trkpt>
      <trkpt lat="42.81309" lon="0.42809">
        <ele>1225.7</ele>
        <time>2024-07-24T22:03:46.661Z</time>
      </trkpt>
      <trkpt lat="42.8131" lon="0.42821">
        <ele>1227.1</ele>
        <time>2024-07-24T22:03:50.118Z</time>
        <extensions>
          <visugpx:TrkExtension xmlns:visugpx="https://www.visugpx.com/editgpx/">
            <visugpx:node>6</visugpx:node>
            </visugpx:TrkExtension>
        </extensions>
      </trkpt>
      <trkpt lat="42.81307" lon="0.42831">
        <ele>1228.6</ele>
        <time>2024-07-24T22:03:53.601Z</time>
      </trkpt>
      <trkpt lat="42.81301" lon="0.42838">
        <ele>1230.8</ele>
        <time>2024-07-24T22:03:58.575Z</time>
      </trkpt>
      <trkpt lat="42.81296" lon="0.4284">
        <ele>1231.6</ele>
        <time>2024-07-24T22:04:00.575Z</time>
      </trkpt>
      <trkpt lat="42.81283" lon="0.42841">
        <ele>1232.1</ele>
        <time>2024-07-24T22:04:03.924Z</time>
      </trkpt>
      <trkpt lat="42.81258" lon="0.42838">
        <ele>1233.5</ele>
        <time>2024-07-24T22:04:10.758Z</time>
      </trkpt>
      <trkpt lat="42.81246" lon="0.42834">
        <ele>1234.1</ele>
        <time>2024-07-24T22:04:14.043Z</time>
      </trkpt>
      <trkpt lat="42.81208" lon="0.42816">
        <ele>1238.4</ele>
        <time>2024-07-24T22:04:27.081Z</time>
      </trkpt>
      <trkpt lat="42.81219" lon="0.4283">
        <ele>1239.3</ele>
        <time>2024-07-24T22:04:31.233Z</time>
        <extensions>
          <visugpx:TrkExtension xmlns:visugpx="https://www.visugpx.com/editgpx/">
            <visugpx:node>7</visugpx:node>
            </visugpx:TrkExtension>
        </extensions>
      </trkpt>
      <trkpt lat="42.81208" lon="0.42816">
        <ele>1238.4</ele>
        <time>2024-07-24T22:04:34.235Z</time>
      </trkpt>
      <trkpt lat="42.81175" lon="0.42798">
        <ele>1242.6</ele>
        <time>2024-07-24T22:04:46.224Z</time>
      </trkpt>
      <trkpt lat="42.81109" lon="0.42748">
        <ele>1247.8</ele>
        <time>2024-07-24T22:05:07.698Z</time>
      </trkpt>
      <trkpt lat="42.81081" lon="0.42733">
        <ele>1250.5</ele>
        <time>2024-07-24T22:05:16.884Z</time>
      </trkpt>
      <trkpt lat="42.81042" lon="0.42719">
        <ele>1254.5</ele>
        <time>2024-07-24T22:05:29.607Z</time>
      </trkpt>
      <trkpt lat="42.81022" lon="0.42708">
        <ele>1257</ele>
        <time>2024-07-24T22:05:36.823Z</time>
      </trkpt>
      <trkpt lat="42.8101" lon="0.42699">
        <ele>1258.6</ele>
        <time>2024-07-24T22:05:41.421Z</time>
      </trkpt>
      <trkpt lat="42.8099" lon="0.4268">
        <ele>1259.9</ele>
        <time>2024-07-24T22:05:48.005Z</time>
      </trkpt>
      <trkpt lat="42.80974" lon="0.42668">
        <ele>1261.8</ele>
        <time>2024-07-24T22:05:53.865Z</time>
      </trkpt>
      <trkpt lat="42.80943" lon="0.42651">
        <ele>1265.8</ele>
        <time>2024-07-24T22:06:05.198Z</time>
      </trkpt>
      <trkpt lat="42.80933" lon="0.42642">
        <ele>1266.3</ele>
        <time>2024-07-24T22:06:08.314Z</time>
      </trkpt>
      <trkpt lat="42.80914" lon="0.42617">
        <ele>1270.7</ele>
        <time>2024-07-24T22:06:18.956Z</time>
        <extensions>
          <visugpx:TrkExtension xmlns:visugpx="https://www.visugpx.com/editgpx/">
            <visugpx:node>8</visugpx:node>
            </visugpx:TrkExtension>
        </extensions>
      </trkpt>
      <trkpt lat="42.80877" lon="0.42566">
        <ele>1273.1</ele>
        <time>2024-07-24T22:06:32.814Z</time>
      </trkpt>
      <trkpt lat="42.80861" lon="0.42553">
        <ele>1276.2</ele>
        <time>2024-07-24T22:06:40.315Z</time>
      </trkpt>
      <trkpt lat="42.80838" lon="0.4254">
        <ele>1278.5</ele>
        <time>2024-07-24T22:06:47.986Z</time>
      </trkpt>
      <trkpt lat="42.80729" lon="0.42498">
        <ele>1287.9</ele>
        <time>2024-07-24T22:07:21.778Z</time>
      </trkpt>
      <trkpt lat="42.80688" lon="0.42487">
        <ele>1292.3</ele>
        <time>2024-07-24T22:07:35.246Z</time>
      </trkpt>
      <trkpt lat="42.80621" lon="0.42476">
        <ele>1298.1</ele>
        <time>2024-07-24T22:07:55.583Z</time>
      </trkpt>
      <trkpt lat="42.80568" lon="0.42471">
        <ele>1303.2</ele>
        <time>2024-07-24T22:08:12.158Z</time>
      </trkpt>
      <trkpt lat="42.80513" lon="0.42468">
        <ele>1307.9</ele>
        <time>2024-07-24T22:08:28.714Z</time>
      </trkpt>
      <trkpt lat="42.80455" lon="0.42461">
        <ele>1315.1</ele>
        <time>2024-07-24T22:08:48.744Z</time>
        <extensions>
          <visugpx:TrkExtension xmlns:visugpx="https://www.visugpx.com/editgpx/">
            <visugpx:node>9</visugpx:node>
            </visugpx:TrkExtension>
        </extensions>
      </trkpt>
      <trkpt lat="42.80423" lon="0.42458">
        <ele>1317.8</ele>
        <time>2024-07-24T22:08:58.352Z</time>
      </trkpt>
      <trkpt lat="42.80411" lon="0.42459">
        <ele>1318.4</ele>
        <time>2024-07-24T22:09:01.563Z</time>
      </trkpt>
      <trkpt lat="42.80396" lon="0.42463">
        <ele>1319.2</ele>
        <time>2024-07-24T22:09:05.678Z</time>
      </trkpt>
      <trkpt lat="42.80382" lon="0.42469">
        <ele>1321.1</ele>
        <time>2024-07-24T22:09:10.833Z</time>
      </trkpt>
      <trkpt lat="42.80354" lon="0.42484">
        <ele>1324.9</ele>
        <time>2024-07-24T22:09:21.281Z</time>
      </trkpt>
      <trkpt lat="42.80332" lon="0.42499">
        <ele>1325.4</ele>
        <time>2024-07-24T22:09:27.255Z</time>
      </trkpt>
      <trkpt lat="42.80278" lon="0.42541">
        <ele>1333.3</ele>
        <time>2024-07-24T22:09:48.906Z</time>
        <extensions>
          <visugpx:TrkExtension xmlns:visugpx="https://www.visugpx.com/editgpx/">
            <visugpx:node>10</visugpx:node>
            </visugpx:TrkExtension>
        </extensions>
      </trkpt>
      <trkpt lat="42.80267" lon="0.42552">
        <ele>1334.1</ele>
        <time>2024-07-24T22:09:52.656Z</time>
      </trkpt>
      <trkpt lat="42.80259" lon="0.42566">
        <ele>1335.5</ele>
        <time>2024-07-24T22:09:56.886Z</time>
      </trkpt>
      <trkpt lat="42.80239" lon="0.4264">
        <ele>1341</ele>
        <time>2024-07-24T22:10:14.879Z</time>
      </trkpt>
      <trkpt lat="42.80226" lon="0.42676">
        <ele>1343.9</ele>
        <time>2024-07-24T22:10:24.144Z</time>
      </trkpt>
      <trkpt lat="42.80218" lon="0.42705">
        <ele>1345.6</ele>
        <time>2024-07-24T22:10:30.739Z</time>
      </trkpt>
      <trkpt lat="42.80208" lon="0.42787">
        <ele>1353.2</ele>
        <time>2024-07-24T22:10:51.792Z</time>
      </trkpt>
      <trkpt lat="42.802" lon="0.42821">
        <ele>1354.8</ele>
        <time>2024-07-24T22:10:59.051Z</time>
      </trkpt>
      <trkpt lat="42.80191" lon="0.4285">
        <ele>1356</ele>
        <time>2024-07-24T22:11:05.262Z</time>
      </trkpt>
      <trkpt lat="42.80186" lon="0.42878">
        <ele>1357.4</ele>
        <time>2024-07-24T22:11:11.222Z</time>
      </trkpt>
      <trkpt lat="42.8018" lon="0.42927">
        <ele>1360.1</ele>
        <time>2024-07-24T22:11:21.772Z</time>
      </trkpt>
      <trkpt lat="42.80178" lon="0.42962">
        <ele>1360.9</ele>
        <time>2024-07-24T22:11:28.244Z</time>
      </trkpt>
      <trkpt lat="42.8018" lon="0.42999">
        <ele>1362.2</ele>
        <time>2024-07-24T22:11:35.463Z</time>
      </trkpt>
      <trkpt lat="42.80179" lon="0.43031">
        <ele>1362.1</ele>
        <time>2024-07-24T22:11:40.750Z</time>
      </trkpt>
      <trkpt lat="42.80176" lon="0.4305">
        <ele>1362.6</ele>
        <time>2024-07-24T22:11:44.379Z</time>
      </trkpt>
      <trkpt lat="42.80167" lon="0.43079">
        <ele>1363.5</ele>
        <time>2024-07-24T22:11:50.333Z</time>
        <extensions>
          <visugpx:TrkExtension xmlns:visugpx="https://www.visugpx.com/editgpx/">
            <visugpx:node>11</visugpx:node>
            </visugpx:TrkExtension>
        </extensions>
      </trkpt>
      <trkpt lat="42.80146" lon="0.43136">
        <ele>1367.3</ele>
        <time>2024-07-24T22:12:04.209Z</time>
      </trkpt>
      <trkpt lat="42.80141" lon="0.43159">
        <ele>1368</ele>
        <time>2024-07-24T22:12:08.758Z</time>
      </trkpt>
      <trkpt lat="42.80138" lon="0.43183">
        <ele>1368.5</ele>
        <time>2024-07-24T22:12:13.202Z</time>
      </trkpt>
      <trkpt lat="42.80137" lon="0.43208">
        <ele>1369.6</ele>
        <time>2024-07-24T22:12:18.272Z</time>
      </trkpt>
      <trkpt lat="42.80139" lon="0.43304">
        <ele>1376.9</ele>
        <time>2024-07-24T22:12:40.847Z</time>
      </trkpt>
      <trkpt lat="42.80136" lon="0.43331">
        <ele>1377.7</ele>
        <time>2024-07-24T22:12:46.027Z</time>
      </trkpt>
      <trkpt lat="42.80118" lon="0.43447">
        <ele>1385.2</ele>
        <time>2024-07-24T22:13:12.268Z</time>
      </trkpt>
      <trkpt lat="42.80112" lon="0.43505">
        <ele>1386.9</ele>
        <time>2024-07-24T22:13:23.366Z</time>
      </trkpt>
      <trkpt lat="42.80089" lon="0.43628">
        <ele>1394.8</ele>
        <time>2024-07-24T22:13:51.325Z</time>
        <extensions>
          <visugpx:TrkExtension xmlns:visugpx="https://www.visugpx.com/editgpx/">
            <visugpx:node>12</visugpx:node>
            </visugpx:TrkExtension>
        </extensions>
      </trkpt>
      <trkpt lat="42.80086" lon="0.43654">
        <ele>1395.8</ele>
        <time>2024-07-24T22:13:56.514Z</time>
      </trkpt>
      <trkpt lat="42.80086" lon="0.43673">
        <ele>1396.8</ele>
        <time>2024-07-24T22:14:00.517Z</time>
      </trkpt>
      <trkpt lat="42.8009" lon="0.43759">
        <ele>1401.4</ele>
        <time>2024-07-24T22:14:18.736Z</time>
      </trkpt>
      <trkpt lat="42.80091" lon="0.43861">
        <ele>1408</ele>
        <time>2024-07-24T22:14:41.465Z</time>
      </trkpt>
      <trkpt lat="42.80096" lon="0.43943">
        <ele>1411.4</ele>
        <time>2024-07-24T22:14:57.933Z</time>
      </trkpt>
      <trkpt lat="42.80106" lon="0.44013">
        <ele>1415.2</ele>
        <time>2024-07-24T22:15:13.003Z</time>
      </trkpt>
      <trkpt lat="42.80109" lon="0.44052">
        <ele>1417.9</ele>
        <time>2024-07-24T22:15:21.913Z</time>
        <extensions>
          <visugpx:TrkExtension xmlns:visugpx="https://www.visugpx.com/editgpx/">
            <visugpx:node>13</visugpx:node>
            </visugpx:TrkExtension>
        </extensions>
      </trkpt>
      <trkpt lat="42.80109" lon="0.44092">
        <ele>1419.4</ele>
        <time>2024-07-24T22:15:29.782Z</time>
      </trkpt>
      <trkpt lat="42.80111" lon="0.44113">
        <ele>1420.9</ele>
        <time>2024-07-24T22:15:34.639Z</time>
      </trkpt>
      <trkpt lat="42.80117" lon="0.44133">
        <ele>1422.3</ele>
        <time>2024-07-24T22:15:39.456Z</time>
      </trkpt>
      <trkpt lat="42.80136" lon="0.44169">
        <ele>1424</ele>
        <time>2024-07-24T22:15:48.213Z</time>
      </trkpt>
      <trkpt lat="42.80144" lon="0.4419">
        <ele>1426.2</ele>
        <time>2024-07-24T22:15:54.251Z</time>
      </trkpt>
      <trkpt lat="42.80161" lon="0.44294">
        <ele>1432</ele>
        <time>2024-07-24T22:16:16.887Z</time>
      </trkpt>
      <trkpt lat="42.80165" lon="0.4431">
        <ele>1433</ele>
        <time>2024-07-24T22:16:20.557Z</time>
      </trkpt>
      <trkpt lat="42.80176" lon="0.44336">
        <ele>1436.4</ele>
        <time>2024-07-24T22:16:29.034Z</time>
      </trkpt>
      <trkpt lat="42.80201" lon="0.44379">
        <ele>1440.2</ele>
        <time>2024-07-24T22:16:41.523Z</time>
      </trkpt>
      <trkpt lat="42.80209" lon="0.44397">
        <ele>1441.9</ele>
        <time>2024-07-24T22:16:46.585Z</time>
        <extensions>
          <visugpx:TrkExtension xmlns:visugpx="https://www.visugpx.com/editgpx/">
            <visugpx:node>14</visugpx:node>
            </visugpx:TrkExtension>
        </extensions>
      </trkpt>
      <trkpt lat="42.80212" lon="0.44418">
        <ele>1441.4</ele>
        <time>2024-07-24T22:16:49.834Z</time>
      </trkpt>
      <trkpt lat="42.80205" lon="0.44464">
        <ele>1444.9</ele>
        <time>2024-07-24T22:17:00.798Z</time>
      </trkpt>
      <trkpt lat="42.80203" lon="0.44489">
        <ele>1446.5</ele>
        <time>2024-07-24T22:17:06.373Z</time>
      </trkpt>
      <trkpt lat="42.80202" lon="0.44556">
        <ele>1451.7</ele>
        <time>2024-07-24T22:17:22.245Z</time>
      </trkpt>
      <trkpt lat="42.80196" lon="0.44684">
        <ele>1462</ele>
        <time>2024-07-24T22:17:53.021Z</time>
      </trkpt>
      <trkpt lat="42.80182" lon="0.4491">
        <ele>1477</ele>
        <time>2024-07-24T22:18:43.898Z</time>
      </trkpt>
      <trkpt lat="42.80188" lon="0.44952">
        <ele>1480</ele>
        <time>2024-07-24T22:18:53.678Z</time>
      </trkpt>
      <trkpt lat="42.80212" lon="0.4503">
        <ele>1485.9</ele>
        <time>2024-07-24T22:19:12.978Z</time>
      </trkpt>
      <trkpt lat="42.80221" lon="0.45067">
        <ele>1488.9</ele>
        <time>2024-07-24T22:19:22.182Z</time>
      </trkpt>
      <trkpt lat="42.80231" lon="0.45141">
        <ele>1493.8</ele>
        <time>2024-07-24T22:19:38.981Z</time>
      </trkpt>
      <trkpt lat="42.80232" lon="0.45211">
        <ele>1499.3</ele>
        <time>2024-07-24T22:19:55.640Z</time>
      </trkpt>
      <trkpt lat="42.80235" lon="0.45257">
        <ele>1500.9</ele>
        <time>2024-07-24T22:20:04.610Z</time>
        <extensions>
          <visugpx:TrkExtension xmlns:visugpx="https://www.visugpx.com/editgpx/">
            <visugpx:node>15</visugpx:node>
            </visugpx:TrkExtension>
        </extensions>
      </trkpt>
      <trkpt lat="42.80232" lon="0.45275">
        <ele>1501.5</ele>
        <time>2024-07-24T22:20:08.162Z</time>
      </trkpt>
      <trkpt lat="42.80211" lon="0.45324">
        <ele>1507.9</ele>
        <time>2024-07-24T22:20:24.148Z</time>
      </trkpt>
      <trkpt lat="42.80206" lon="0.45347">
        <ele>1509.8</ele>
        <time>2024-07-24T22:20:29.874Z</time>
      </trkpt>
      <trkpt lat="42.80202" lon="0.45456">
        <ele>1517.7</ele>
        <time>2024-07-24T22:20:55.088Z</time>
      </trkpt>
      <trkpt lat="42.80191" lon="0.4552">
        <ele>1522.2</ele>
        <time>2024-07-24T22:21:09.996Z</time>
      </trkpt>
      <trkpt lat="42.80183" lon="0.45619">
        <ele>1529</ele>
        <time>2024-07-24T22:21:32.564Z</time>
      </trkpt>
      <trkpt lat="42.80172" lon="0.45701">
        <ele>1535.2</ele>
        <time>2024-07-24T22:21:52.006Z</time>
      </trkpt>
      <trkpt lat="42.80171" lon="0.45717">
        <ele>1536.3</ele>
        <time>2024-07-24T22:21:55.649Z</time>
      </trkpt>
      <trkpt lat="42.80172" lon="0.45733">
        <ele>1537.4</ele>
        <time>2024-07-24T22:21:59.291Z</time>
      </trkpt>
      <trkpt lat="42.80182" lon="0.45802">
        <ele>1544.2</ele>
        <time>2024-07-24T22:22:17.570Z</time>
      </trkpt>
      <trkpt lat="42.80191" lon="0.45934">
        <ele>1552.9</ele>
        <time>2024-07-24T22:22:47.237Z</time>
        <extensions>
          <visugpx:TrkExtension xmlns:visugpx="https://www.visugpx.com/editgpx/">
            <visugpx:node>16</visugpx:node>
            </visugpx:TrkExtension>
        </extensions>
      </trkpt>
      <trkpt lat="42.80224" lon="0.46211">
        <ele>1565.3</ele>
        <time>2024-07-24T22:23:44.131Z</time>
      </trkpt>
      <trkpt lat="42.80232" lon="0.46363">
        <ele>1565.5</ele>
        <time>2024-07-24T22:24:09.756Z</time>
      </trkpt>
      <trkpt lat="42.80237" lon="0.46394">
        <ele>1561.8</ele>
        <time>2024-07-24T22:24:14.400Z</time>
      </trkpt>
      <trkpt lat="42.80246" lon="0.46423">
        <ele>1557.1</ele>
        <time>2024-07-24T22:24:19.008Z</time>
        <extensions>
          <visugpx:TrkExtension xmlns:visugpx="https://www.visugpx.com/editgpx/">
            <visugpx:node>17</visugpx:node>
            </visugpx:TrkExtension>
        </extensions>
      </trkpt>
      <trkpt lat="42.80289" lon="0.46589">
        <ele>1542.4</ele>
        <time>2024-07-24T22:24:44.767Z</time>
      </trkpt>
      <trkpt lat="42.803" lon="0.46625">
        <ele>1539.3</ele>
        <time>2024-07-24T22:24:50.473Z</time>
      </trkpt>
      <trkpt lat="42.80308" lon="0.46644">
        <ele>1537.6</ele>
        <time>2024-07-24T22:24:53.679Z</time>
      </trkpt>
      <trkpt lat="42.80324" lon="0.46671">
        <ele>1535.7</ele>
        <time>2024-07-24T22:24:58.757Z</time>
      </trkpt>
      <trkpt lat="42.80352" lon="0.46712">
        <ele>1532.3</ele>
        <time>2024-07-24T22:25:06.953Z</time>
      </trkpt>
      <trkpt lat="42.80439" lon="0.4683">
        <ele>1521.3</ele>
        <time>2024-07-24T22:25:31.431Z</time>
      </trkpt>
      <trkpt lat="42.80449" lon="0.46841">
        <ele>1520.6</ele>
        <time>2024-07-24T22:25:33.994Z</time>
      </trkpt>
      <trkpt lat="42.80473" lon="0.46862">
        <ele>1518.8</ele>
        <time>2024-07-24T22:25:39.682Z</time>
      </trkpt>
      <trkpt lat="42.80476" lon="0.46871">
        <ele>1515.9</ele>
        <time>2024-07-24T22:25:41.128Z</time>
      </trkpt>
      <trkpt lat="42.80471" lon="0.46879">
        <ele>1512.2</ele>
        <time>2024-07-24T22:25:42.666Z</time>
        <extensions>
          <visugpx:TrkExtension xmlns:visugpx="https://www.visugpx.com/editgpx/">
            <visugpx:node>18</visugpx:node>
            </visugpx:TrkExtension>
        </extensions>
      </trkpt>
      <trkpt lat="42.80467" lon="0.46881">
        <ele>1510.4</ele>
        <time>2024-07-24T22:25:43.516Z</time>
      </trkpt>
      <trkpt lat="42.80463" lon="0.4688">
        <ele>1509.7</ele>
        <time>2024-07-24T22:25:44.327Z</time>
      </trkpt>
      <trkpt lat="42.80421" lon="0.46839">
        <ele>1510.7</ele>
        <time>2024-07-24T22:25:56.834Z</time>
      </trkpt>
      <trkpt lat="42.80387" lon="0.46813">
        <ele>1507.4</ele>
        <time>2024-07-24T22:26:04.609Z</time>
      </trkpt>
      <trkpt lat="42.80277" lon="0.46736">
        <ele>1494.8</ele>
        <time>2024-07-24T22:26:29.271Z</time>
      </trkpt>
      <trkpt lat="42.80249" lon="0.46719">
        <ele>1492.7</ele>
        <time>2024-07-24T22:26:35.384Z</time>
      </trkpt>
      <trkpt lat="42.80217" lon="0.46706">
        <ele>1489.7</ele>
        <time>2024-07-24T22:26:42.043Z</time>
      </trkpt>
      <trkpt lat="42.80183" lon="0.46696">
        <ele>1489.4</ele>
        <time>2024-07-24T22:26:49.764Z</time>
      </trkpt>
      <trkpt lat="42.80173" lon="0.46697">
        <ele>1489</ele>
        <time>2024-07-24T22:26:51.792Z</time>
      </trkpt>
      <trkpt lat="42.80169" lon="0.46699">
        <ele>1488.7</ele>
        <time>2024-07-24T22:26:52.641Z</time>
      </trkpt>
      <trkpt lat="42.80164" lon="0.46706">
        <ele>1488.6</ele>
        <time>2024-07-24T22:26:54.207Z</time>
      </trkpt>
      <trkpt lat="42.80163" lon="0.46716">
        <ele>1488</ele>
        <time>2024-07-24T22:26:55.684Z</time>
        <extensions>
          <visugpx:TrkExtension xmlns:visugpx="https://www.visugpx.com/editgpx/">
            <visugpx:node>19</visugpx:node>
            </visugpx:TrkExtension>
        </extensions>
      </trkpt>
      <trkpt lat="42.80166" lon="0.46725">
        <ele>1486.6</ele>
        <time>2024-07-24T22:26:57.130Z</time>
      </trkpt>
      <trkpt lat="42.80172" lon="0.46731">
        <ele>1485</ele>
        <time>2024-07-24T22:26:58.615Z</time>
      </trkpt>
      <trkpt lat="42.80199" lon="0.46731">
        <ele>1483.2</ele>
        <time>2024-07-24T22:27:03.999Z</time>
      </trkpt>
      <trkpt lat="42.80208" lon="0.46733">
        <ele>1482.8</ele>
        <time>2024-07-24T22:27:05.822Z</time>
      </trkpt>
      <trkpt lat="42.80225" lon="0.46742">
        <ele>1480.8</ele>
        <time>2024-07-24T22:27:09.459Z</time>
      </trkpt>
      <trkpt lat="42.80244" lon="0.46758">
        <ele>1479.5</ele>
        <time>2024-07-24T22:27:13.913Z</time>
      </trkpt>
      <trkpt lat="42.80258" lon="0.46773">
        <ele>1477.6</ele>
        <time>2024-07-24T22:27:17.465Z</time>
      </trkpt>
      <trkpt lat="42.80316" lon="0.46849">
        <ele>1469.7</ele>
        <time>2024-07-24T22:27:33.511Z</time>
      </trkpt>
      <trkpt lat="42.80378" lon="0.46923">
        <ele>1463.6</ele>
        <time>2024-07-24T22:27:49.946Z</time>
      </trkpt>
      <trkpt lat="42.80389" lon="0.46939">
        <ele>1461.8</ele>
        <time>2024-07-24T22:27:53.155Z</time>
        <extensions>
          <visugpx:TrkExtension xmlns:visugpx="https://www.visugpx.com/editgpx/">
            <visugpx:node>20</visugpx:node>
            </visugpx:TrkExtension>
        </extensions>
      </trkpt>
      <trkpt lat="42.8039" lon="0.46946">
        <ele>1459.9</ele>
        <time>2024-07-24T22:27:54.198Z</time>
      </trkpt>
      <trkpt lat="42.80387" lon="0.46952">
        <ele>1457.3</ele>
        <time>2024-07-24T22:27:55.261Z</time>
      </trkpt>
      <trkpt lat="42.80383" lon="0.46955">
        <ele>1455.3</ele>
        <time>2024-07-24T22:27:56.171Z</time>
      </trkpt>
      <trkpt lat="42.80378" lon="0.46954">
        <ele>1454.2</ele>
        <time>2024-07-24T22:27:57.179Z</time>
      </trkpt>
      <trkpt lat="42.80372" lon="0.46949">
        <ele>1454.2</ele>
        <time>2024-07-24T22:27:58.782Z</time>
      </trkpt>
      <trkpt lat="42.80353" lon="0.46921">
        <ele>1456.8</ele>
        <time>2024-07-24T22:28:07.420Z</time>
      </trkpt>
      <trkpt lat="42.80344" lon="0.46913">
        <ele>1456.8</ele>
        <time>2024-07-24T22:28:09.869Z</time>
      </trkpt>
      <trkpt lat="42.80319" lon="0.469">
        <ele>1454.2</ele>
        <time>2024-07-24T22:28:15.205Z</time>
      </trkpt>
      <trkpt lat="42.80287" lon="0.46891">
        <ele>1450.8</ele>
        <time>2024-07-24T22:28:21.721Z</time>
      </trkpt>
      <trkpt lat="42.80267" lon="0.46889">
        <ele>1448.8</ele>
        <time>2024-07-24T22:28:25.721Z</time>
      </trkpt>
      <trkpt lat="42.80243" lon="0.46891">
        <ele>1446.2</ele>
        <time>2024-07-24T22:28:30.516Z</time>
      </trkpt>
      <trkpt lat="42.80207" lon="0.46902">
        <ele>1444.5</ele>
        <time>2024-07-24T22:28:37.874Z</time>
      </trkpt>
      <trkpt lat="42.80193" lon="0.46909">
        <ele>1444.8</ele>
        <time>2024-07-24T22:28:41.493Z</time>
        <extensions>
          <visugpx:TrkExtension xmlns:visugpx="https://www.visugpx.com/editgpx/">
            <visugpx:node>21</visugpx:node>
            </visugpx:TrkExtension>
        </extensions>
      </trkpt>
      <trkpt lat="42.80186" lon="0.46915">
        <ele>1445.1</ele>
        <time>2024-07-24T22:28:43.606Z</time>
      </trkpt>
      <trkpt lat="42.8018" lon="0.46925">
        <ele>1444.5</ele>
        <time>2024-07-24T22:28:45.496Z</time>
      </trkpt>
      <trkpt lat="42.80177" lon="0.46932">
        <ele>1443.8</ele>
        <time>2024-07-24T22:28:46.682Z</time>
      </trkpt>
      <trkpt lat="42.80173" lon="0.46951">
        <ele>1441.6</ele>
        <time>2024-07-24T22:28:49.575Z</time>
      </trkpt>
      <trkpt lat="42.80167" lon="0.47024">
        <ele>1434.3</ele>
        <time>2024-07-24T22:29:00.324Z</time>
      </trkpt>
      <trkpt lat="42.80144" lon="0.47132">
        <ele>1426.9</ele>
        <time>2024-07-24T22:29:16.779Z</time>
      </trkpt>
      <trkpt lat="42.80143" lon="0.4716">
        <ele>1425.1</ele>
        <time>2024-07-24T22:29:20.881Z</time>
      </trkpt>
      <trkpt lat="42.80146" lon="0.47185">
        <ele>1422.1</ele>
        <time>2024-07-24T22:29:24.588Z</time>
        <extensions>
          <visugpx:TrkExtension xmlns:visugpx="https://www.visugpx.com/editgpx/">
            <visugpx:node>22</visugpx:node>
            </visugpx:TrkExtension>
        </extensions>
      </trkpt>
      <trkpt lat="42.80155" lon="0.47221">
        <ele>1418.5</ele>
        <time>2024-07-24T22:29:30.153Z</time>
      </trkpt>
      <trkpt lat="42.80164" lon="0.47243">
        <ele>1417.3</ele>
        <time>2024-07-24T22:29:33.839Z</time>
      </trkpt>
      <trkpt lat="42.80173" lon="0.47258">
        <ele>1416.5</ele>
        <time>2024-07-24T22:29:36.674Z</time>
      </trkpt>
      <trkpt lat="42.80199" lon="0.47289">
        <ele>1413.6</ele>
        <time>2024-07-24T22:29:43.564Z</time>
      </trkpt>
      <trkpt lat="42.80214" lon="0.47311">
        <ele>1412.6</ele>
        <time>2024-07-24T22:29:47.958Z</time>
      </trkpt>
      <trkpt lat="42.80223" lon="0.47332">
        <ele>1412.5</ele>
        <time>2024-07-24T22:29:51.956Z</time>
      </trkpt>
      <trkpt lat="42.80237" lon="0.4738">
        <ele>1408.3</ele>
        <time>2024-07-24T22:29:59.514Z</time>
      </trkpt>
      <trkpt lat="42.8025" lon="0.47408">
        <ele>1406.4</ele>
        <time>2024-07-24T22:30:04.363Z</time>
      </trkpt>
      <trkpt lat="42.80262" lon="0.4743">
        <ele>1405.5</ele>
        <time>2024-07-24T22:30:08.374Z</time>
        <extensions>
          <visugpx:TrkExtension xmlns:visugpx="https://www.visugpx.com/editgpx/">
            <visugpx:node>23</visugpx:node>
            </visugpx:TrkExtension>
        </extensions>
      </trkpt>
      <trkpt lat="42.80281" lon="0.47459">
        <ele>1403.5</ele>
        <time>2024-07-24T22:30:14.063Z</time>
      </trkpt>
      <trkpt lat="42.80293" lon="0.47474">
        <ele>1402.4</ele>
        <time>2024-07-24T22:30:17.311Z</time>
      </trkpt>
      <trkpt lat="42.80346" lon="0.4753">
        <ele>1396.3</ele>
        <time>2024-07-24T22:30:30.685Z</time>
      </trkpt>
      <trkpt lat="42.80378" lon="0.47571">
        <ele>1392.2</ele>
        <time>2024-07-24T22:30:39.444Z</time>
      </trkpt>
      <trkpt lat="42.80395" lon="0.47602">
        <ele>1389.2</ele>
        <time>2024-07-24T22:30:45.107Z</time>
      </trkpt>
      <trkpt lat="42.80403" lon="0.4762">
        <ele>1387.7</ele>
        <time>2024-07-24T22:30:48.186Z</time>
      </trkpt>
      <trkpt lat="42.80437" lon="0.47706">
        <ele>1380.1</ele>
        <time>2024-07-24T22:31:02.481Z</time>
        <extensions>
          <visugpx:TrkExtension xmlns:visugpx="https://www.visugpx.com/editgpx/">
            <visugpx:node>24</visugpx:node>
            </visugpx:TrkExtension>
        </extensions>
      </trkpt>
      <trkpt lat="42.80458" lon="0.47762">
        <ele>1375.3</ele>
        <time>2024-07-24T22:31:11.683Z</time>
      </trkpt>
      <trkpt lat="42.80485" lon="0.47889">
        <ele>1366.9</ele>
        <time>2024-07-24T22:31:31.030Z</time>
      </trkpt>
      <trkpt lat="42.80503" lon="0.47942">
        <ele>1362.9</ele>
        <time>2024-07-24T22:31:39.576Z</time>
      </trkpt>
      <trkpt lat="42.8052" lon="0.48002">
        <ele>1360.6</ele>
        <time>2024-07-24T22:31:48.987Z</time>
      </trkpt>
      <trkpt lat="42.8053" lon="0.48024">
        <ele>1359.1</ele>
        <time>2024-07-24T22:31:52.773Z</time>
      </trkpt>
      <trkpt lat="42.80548" lon="0.48049">
        <ele>1356.7</ele>
        <time>2024-07-24T22:31:57.899Z</time>
        <extensions>
          <visugpx:TrkExtension xmlns:visugpx="https://www.visugpx.com/editgpx/">
            <visugpx:node>25</visugpx:node>
            </visugpx:TrkExtension>
        </extensions>
      </trkpt>
      <trkpt lat="42.80616" lon="0.4815">
        <ele>1348.2</ele>
        <time>2024-07-24T22:32:17.956Z</time>
      </trkpt>
      <trkpt lat="42.80679" lon="0.48231">
        <ele>1341.2</ele>
        <time>2024-07-24T22:32:35.228Z</time>
      </trkpt>
      <trkpt lat="42.807" lon="0.48262">
        <ele>1338.7</ele>
        <time>2024-07-24T22:32:41.402Z</time>
      </trkpt>
      <trkpt lat="42.80735" lon="0.48326">
        <ele>1333.6</ele>
        <time>2024-07-24T22:32:53.081Z</time>
      </trkpt>
      <trkpt lat="42.80744" lon="0.48349">
        <ele>1331.8</ele>
        <time>2024-07-24T22:32:56.895Z</time>
      </trkpt>
      <trkpt lat="42.80752" lon="0.48376">
        <ele>1330.6</ele>
        <time>2024-07-24T22:33:01.156Z</time>
        <extensions>
          <visugpx:TrkExtension xmlns:visugpx="https://www.visugpx.com/editgpx/">
            <visugpx:node>26</visugpx:node>
            </visugpx:TrkExtension>
        </extensions>
      </trkpt>
      <trkpt lat="42.8076" lon="0.48422">
        <ele>1327.4</ele>
        <time>2024-07-24T22:33:08.073Z</time>
      </trkpt>
      <trkpt lat="42.80764" lon="0.48473">
        <ele>1324.9</ele>
        <time>2024-07-24T22:33:15.577Z</time>
      </trkpt>
      <trkpt lat="42.80763" lon="0.48559">
        <ele>1319.6</ele>
        <time>2024-07-24T22:33:28.162Z</time>
      </trkpt>
      <trkpt lat="42.80759" lon="0.48633">
        <ele>1315.3</ele>
        <time>2024-07-24T22:33:39.018Z</time>
      </trkpt>
      <trkpt lat="42.8076" lon="0.48799">
        <ele>1304</ele>
        <time>2024-07-24T22:34:03.307Z</time>
        <extensions>
          <visugpx:TrkExtension xmlns:visugpx="https://www.visugpx.com/editgpx/">
            <visugpx:node>27</visugpx:node>
            </visugpx:TrkExtension>
        </extensions>
      </trkpt>
      <trkpt lat="42.80756" lon="0.48836">
        <ele>1301.5</ele>
        <time>2024-07-24T22:34:08.779Z</time>
      </trkpt>
      <trkpt lat="42.80745" lon="0.48899">
        <ele>1298.6</ele>
        <time>2024-07-24T22:34:18.255Z</time>
      </trkpt>
      <trkpt lat="42.80738" lon="0.48952">
        <ele>1294.1</ele>
        <time>2024-07-24T22:34:26.134Z</time>
      </trkpt>
      <trkpt lat="42.80734" lon="0.48976">
        <ele>1292.4</ele>
        <time>2024-07-24T22:34:29.735Z</time>
      </trkpt>
      <trkpt lat="42.80712" lon="0.49073">
        <ele>1287.8</ele>
        <time>2024-07-24T22:34:44.590Z</time>
      </trkpt>
      <trkpt lat="42.80665" lon="0.49386">
        <ele>1261.1</ele>
        <time>2024-07-24T22:35:31.336Z</time>
      </trkpt>
      <trkpt lat="42.80647" lon="0.49478">
        <ele>1255.3</ele>
        <time>2024-07-24T22:35:45.268Z</time>
        <extensions>
          <visugpx:TrkExtension xmlns:visugpx="https://www.visugpx.com/editgpx/">
            <visugpx:node>28</visugpx:node>
            </visugpx:TrkExtension>
        </extensions>
      </trkpt>
      <trkpt lat="42.8064" lon="0.49518">
        <ele>1253.7</ele>
        <time>2024-07-24T22:35:51.285Z</time>
      </trkpt>
      <trkpt lat="42.8063" lon="0.49644">
        <ele>1244.8</ele>
        <time>2024-07-24T22:36:09.828Z</time>
        <extensions>
          <visugpx:TrkExtension xmlns:visugpx="https://www.visugpx.com/editgpx/">
            <visugpx:node>29</visugpx:node>
            </visugpx:TrkExtension>
        </extensions>
      </trkpt>
      <trkpt lat="42.80628" lon="0.49673">
        <ele>1243.7</ele>
        <time>2024-07-24T22:36:14.090Z</time>
      </trkpt>
      <trkpt lat="42.8063" lon="0.497">
        <ele>1242.1</ele>
        <time>2024-07-24T22:36:18.061Z</time>
      </trkpt>
      <trkpt lat="42.80634" lon="0.49714">
        <ele>1240.2</ele>
        <time>2024-07-24T22:36:20.259Z</time>
      </trkpt>
      <trkpt lat="42.80658" lon="0.4977">
        <ele>1232.8</ele>
        <time>2024-07-24T22:36:29.748Z</time>
      </trkpt>
      <trkpt lat="42.80663" lon="0.49797">
        <ele>1231.2</ele>
        <time>2024-07-24T22:36:33.823Z</time>
      </trkpt>
      <trkpt lat="42.80664" lon="0.49823">
        <ele>1230.9</ele>
        <time>2024-07-24T22:36:37.973Z</time>
        <extensions>
          <visugpx:TrkExtension xmlns:visugpx="https://www.visugpx.com/editgpx/">
            <visugpx:node>30</visugpx:node>
            </visugpx:TrkExtension>
        </extensions>
      </trkpt>
      <trkpt lat="42.80663" lon="0.49877">
        <ele>1228.6</ele>
        <time>2024-07-24T22:36:45.876Z</time>
      </trkpt>
      <trkpt lat="42.80659" lon="0.49915">
        <ele>1227.3</ele>
        <time>2024-07-24T22:36:51.493Z</time>
      </trkpt>
      <trkpt lat="42.80649" lon="0.49943">
        <ele>1226</ele>
        <time>2024-07-24T22:36:56.050Z</time>
      </trkpt>
      <trkpt lat="42.80607" lon="0.50036">
        <ele>1220</ele>
        <time>2024-07-24T22:37:12.029Z</time>
        <extensions>
          <visugpx:TrkExtension xmlns:visugpx="https://www.visugpx.com/editgpx/">
            <visugpx:node>31</visugpx:node>
            </visugpx:TrkExtension>
        </extensions>
      </trkpt>
      <trkpt lat="42.80565" lon="0.50135">
        <ele>1209.2</ele>
        <time>2024-07-24T22:37:28.762Z</time>
      </trkpt>
      <trkpt lat="42.80554" lon="0.50166">
        <ele>1207.3</ele>
        <time>2024-07-24T22:37:33.800Z</time>
      </trkpt>
      <trkpt lat="42.80549" lon="0.50191">
        <ele>1206.2</ele>
        <time>2024-07-24T22:37:37.592Z</time>
      </trkpt>
      <trkpt lat="42.80548" lon="0.50209">
        <ele>1205.6</ele>
        <time>2024-07-24T22:37:40.233Z</time>
      </trkpt>
      <trkpt lat="42.80545" lon="0.50209">
        <ele>1206</ele>
        <time>2024-07-24T22:37:41.302Z</time>
      </trkpt>
      <trkpt lat="42.80543" lon="0.50211">
        <ele>1206.2</ele>
        <time>2024-07-24T22:37:42.036Z</time>
      </trkpt>
      <trkpt lat="42.8054" lon="0.50221">
        <ele>1206.3</ele>
        <time>2024-07-24T22:37:43.914Z</time>
      </trkpt>
      <trkpt lat="42.80542" lon="0.50243">
        <ele>1207.4</ele>
        <time>2024-07-24T22:37:48.521Z</time>
        <extensions>
          <visugpx:TrkExtension xmlns:visugpx="https://www.visugpx.com/editgpx/">
            <visugpx:node>32</visugpx:node>
            </visugpx:TrkExtension>
        </extensions>
      </trkpt>
      <trkpt lat="42.8054" lon="0.50221">
        <ele>1206.3</ele>
        <time>2024-07-24T22:37:51.765Z</time>
      </trkpt>
      <trkpt lat="42.80541" lon="0.50215">
        <ele>1206.4</ele>
        <time>2024-07-24T22:37:52.867Z</time>
      </trkpt>
      <trkpt lat="42.80545" lon="0.50209">
        <ele>1206</ele>
        <time>2024-07-24T22:37:54.053Z</time>
      </trkpt>
      <trkpt lat="42.80548" lon="0.50209">
        <ele>1205.6</ele>
        <time>2024-07-24T22:37:54.652Z</time>
      </trkpt>
      <trkpt lat="42.80549" lon="0.50223">
        <ele>1205</ele>
        <time>2024-07-24T22:37:56.710Z</time>
      </trkpt>
      <trkpt lat="42.80552" lon="0.50236">
        <ele>1205.5</ele>
        <time>2024-07-24T22:37:59.381Z</time>
      </trkpt>
      <trkpt lat="42.80557" lon="0.50249">
        <ele>1205.6</ele>
        <time>2024-07-24T22:38:01.907Z</time>
      </trkpt>
      <trkpt lat="42.80563" lon="0.50259">
        <ele>1205.4</ele>
        <time>2024-07-24T22:38:03.933Z</time>
      </trkpt>
      <trkpt lat="42.8057" lon="0.50268">
        <ele>1204.8</ele>
        <time>2024-07-24T22:38:05.852Z</time>
      </trkpt>
      <trkpt lat="42.80635" lon="0.50331">
        <ele>1195.7</ele>
        <time>2024-07-24T22:38:21.759Z</time>
      </trkpt>
      <trkpt lat="42.80653" lon="0.50356">
        <ele>1190.6</ele>
        <time>2024-07-24T22:38:26.884Z</time>
        <extensions>
          <visugpx:TrkExtension xmlns:visugpx="https://www.visugpx.com/editgpx/">
            <visugpx:node>33</visugpx:node>
            </visugpx:TrkExtension>
        </extensions>
      </trkpt>
      <trkpt lat="42.80667" lon="0.50384">
        <ele>1186.9</ele>
        <time>2024-07-24T22:38:31.842Z</time>
      </trkpt>
      <trkpt lat="42.80672" lon="0.50405">
        <ele>1184.8</ele>
        <time>2024-07-24T22:38:35.072Z</time>
      </trkpt>
      <trkpt lat="42.80691" lon="0.50551">
        <ele>1177.2</ele>
        <time>2024-07-24T22:38:56.768Z</time>
        <extensions>
          <visugpx:TrkExtension xmlns:visugpx="https://www.visugpx.com/editgpx/">
            <visugpx:node>34</visugpx:node>
            </visugpx:TrkExtension>
        </extensions>
      </trkpt>
      <trkpt lat="42.8071" lon="0.50698">
        <ele>1167.8</ele>
        <time>2024-07-24T22:39:18.607Z</time>
      </trkpt>
      <trkpt lat="42.80722" lon="0.50767">
        <ele>1163.4</ele>
        <time>2024-07-24T22:39:28.983Z</time>
      </trkpt>
      <trkpt lat="42.80737" lon="0.50829">
        <ele>1157.7</ele>
        <time>2024-07-24T22:39:38.535Z</time>
      </trkpt>
      <trkpt lat="42.80773" lon="0.50962">
        <ele>1151</ele>
        <time>2024-07-24T22:39:59.277Z</time>
        <extensions>
          <visugpx:TrkExtension xmlns:visugpx="https://www.visugpx.com/editgpx/">
            <visugpx:node>35</visugpx:node>
            </visugpx:TrkExtension>
        </extensions>
      </trkpt>
      <trkpt lat="42.80786" lon="0.51008">
        <ele>1148</ele>
        <time>2024-07-24T22:40:06.489Z</time>
      </trkpt>
      <trkpt lat="42.808" lon="0.51066">
        <ele>1144.3</ele>
        <time>2024-07-24T22:40:15.423Z</time>
      </trkpt>
      <trkpt lat="42.80808" lon="0.51133">
        <ele>1137.8</ele>
        <time>2024-07-24T22:40:25.355Z</time>
      </trkpt>
      <trkpt lat="42.80821" lon="0.51199">
        <ele>1130.2</ele>
        <time>2024-07-24T22:40:35.353Z</time>
      </trkpt>
      <trkpt lat="42.80823" lon="0.51218">
        <ele>1128.3</ele>
        <time>2024-07-24T22:40:38.162Z</time>
        <extensions>
          <visugpx:TrkExtension xmlns:visugpx="https://www.visugpx.com/editgpx/">
            <visugpx:node>36</visugpx:node>
            </visugpx:TrkExtension>
        </extensions>
      </trkpt>
      <trkpt lat="42.80822" lon="0.51245">
        <ele>1126.8</ele>
        <time>2024-07-24T22:40:42.117Z</time>
      </trkpt>
      <trkpt lat="42.80807" lon="0.51374">
        <ele>1121.8</ele>
        <time>2024-07-24T22:41:01.227Z</time>
      </trkpt>
      <trkpt lat="42.80805" lon="0.51407">
        <ele>1119.8</ele>
        <time>2024-07-24T22:41:06.072Z</time>
      </trkpt>
      <trkpt lat="42.80806" lon="0.51439">
        <ele>1116.5</ele>
        <time>2024-07-24T22:41:10.758Z</time>
      </trkpt>
      <trkpt lat="42.8081" lon="0.51459">
        <ele>1114.5</ele>
        <time>2024-07-24T22:41:13.791Z</time>
        <extensions>
          <visugpx:TrkExtension xmlns:visugpx="https://www.visugpx.com/editgpx/">
            <visugpx:node>37</visugpx:node>
            </visugpx:TrkExtension>
        </extensions>
      </trkpt>
      <trkpt lat="42.80812" lon="0.51467">
        <ele>1113.9</ele>
        <time>2024-07-24T22:41:15.028Z</time>
      </trkpt>
      <trkpt lat="42.80823" lon="0.51486">
        <ele>1112.2</ele>
        <time>2024-07-24T22:41:18.569Z</time>
      </trkpt>
      <trkpt lat="42.80831" lon="0.51495">
        <ele>1111.3</ele>
        <time>2024-07-24T22:41:20.638Z</time>
      </trkpt>
      <trkpt lat="42.80847" lon="0.51504">
        <ele>1111.9</ele>
        <time>2024-07-24T22:41:25.037Z</time>
      </trkpt>
      <trkpt lat="42.80857" lon="0.51512">
        <ele>1112.6</ele>
        <time>2024-07-24T22:41:28.243Z</time>
        <extensions>
          <visugpx:TrkExtension xmlns:visugpx="https://www.visugpx.com/editgpx/">
            <visugpx:node>38</visugpx:node>
            </visugpx:TrkExtension>
        </extensions>
      </trkpt>
      <trkpt lat="42.80863" lon="0.51522">
        <ele>1113.4</ele>
        <time>2024-07-24T22:41:31.084Z</time>
      </trkpt>
      <trkpt lat="42.80866" lon="0.51534">
        <ele>1113.7</ele>
        <time>2024-07-24T22:41:33.430Z</time>
      </trkpt>
      <trkpt lat="42.80884" lon="0.51749">
        <ele>1108.3</ele>
        <time>2024-07-24T22:42:06.088Z</time>
      </trkpt>
      <trkpt lat="42.80884" lon="0.51769">
        <ele>1107.6</ele>
        <time>2024-07-24T22:42:09.014Z</time>
      </trkpt>
      <trkpt lat="42.80881" lon="0.51803">
        <ele>1106.6</ele>
        <time>2024-07-24T22:42:14.095Z</time>
      </trkpt>
      <trkpt lat="42.80874" lon="0.51853">
        <ele>1104.4</ele>
        <time>2024-07-24T22:42:21.542Z</time>
      </trkpt>
      <trkpt lat="42.80867" lon="0.51882">
        <ele>1103.1</ele>
        <time>2024-07-24T22:42:26.009Z</time>
      </trkpt>
      <trkpt lat="42.80879" lon="0.51869">
        <ele>1105.7</ele>
        <time>2024-07-24T22:42:32.257Z</time>
        <extensions>
          <visugpx:TrkExtension xmlns:visugpx="https://www.visugpx.com/editgpx/">
            <visugpx:node>39</visugpx:node>
            </visugpx:TrkExtension>
        </extensions>
      </trkpt>
      <trkpt lat="42.80867" lon="0.51882">
        <ele>1103.1</ele>
        <time>2024-07-24T22:42:35.314Z</time>
      </trkpt>
      <trkpt lat="42.80855" lon="0.51906">
        <ele>1101</ele>
        <time>2024-07-24T22:42:39.563Z</time>
      </trkpt>
      <trkpt lat="42.80844" lon="0.51924">
        <ele>1099.8</ele>
        <time>2024-07-24T22:42:42.991Z</time>
      </trkpt>
      <trkpt lat="42.8083" lon="0.5194">
        <ele>1098.5</ele>
        <time>2024-07-24T22:42:46.635Z</time>
      </trkpt>
      <trkpt lat="42.80822" lon="0.51945">
        <ele>1097.9</ele>
        <time>2024-07-24T22:42:48.390Z</time>
        <extensions>
          <visugpx:TrkExtension xmlns:visugpx="https://www.visugpx.com/editgpx/">
            <visugpx:node>40</visugpx:node>
            </visugpx:TrkExtension>
        </extensions>
      </trkpt>
      <trkpt lat="42.80816" lon="0.51948">
        <ele>1097.5</ele>
        <time>2024-07-24T22:42:49.664Z</time>
      </trkpt>
      <trkpt lat="42.80797" lon="0.51952">
        <ele>1096.6</ele>
        <time>2024-07-24T22:42:53.499Z</time>
      </trkpt>
      <trkpt lat="42.80745" lon="0.51952">
        <ele>1092.1</ele>
        <time>2024-07-24T22:43:03.869Z</time>
      </trkpt>
      <trkpt lat="42.80728" lon="0.51953">
        <ele>1090.5</ele>
        <time>2024-07-24T22:43:07.263Z</time>
      </trkpt>
      <trkpt lat="42.80714" lon="0.51956">
        <ele>1089.3</ele>
        <time>2024-07-24T22:43:10.089Z</time>
      </trkpt>
      <trkpt lat="42.80704" lon="0.5196">
        <ele>1088.3</ele>
        <time>2024-07-24T22:43:12.168Z</time>
      </trkpt>
      <trkpt lat="42.80689" lon="0.5197">
        <ele>1086.1</ele>
        <time>2024-07-24T22:43:15.498Z</time>
      </trkpt>
      <trkpt lat="42.80675" lon="0.51984">
        <ele>1084.1</ele>
        <time>2024-07-24T22:43:18.961Z</time>
        <extensions>
          <visugpx:TrkExtension xmlns:visugpx="https://www.visugpx.com/editgpx/">
            <visugpx:node>41</visugpx:node>
            </visugpx:TrkExtension>
        </extensions>
      </trkpt>
      <trkpt lat="42.80664" lon="0.52">
        <ele>1081.6</ele>
        <time>2024-07-24T22:43:22.169Z</time>
      </trkpt>
      <trkpt lat="42.80655" lon="0.52019">
        <ele>1081.7</ele>
        <time>2024-07-24T22:43:26.022Z</time>
      </trkpt>
      <trkpt lat="42.80634" lon="0.52088">
        <ele>1078.1</ele>
        <time>2024-07-24T22:43:36.952Z</time>
      </trkpt>
      <trkpt lat="42.80602" lon="0.52172">
        <ele>1066.7</ele>
        <time>2024-07-24T22:43:50.801Z</time>
      </trkpt>
      <trkpt lat="42.80597" lon="0.52197">
        <ele>1063.8</ele>
        <time>2024-07-24T22:43:54.592Z</time>
      </trkpt>
      <trkpt lat="42.80596" lon="0.52214">
        <ele>1062.3</ele>
        <time>2024-07-24T22:43:57.087Z</time>
        <extensions>
          <visugpx:TrkExtension xmlns:visugpx="https://www.visugpx.com/editgpx/">
            <visugpx:node>42</visugpx:node>
            </visugpx:TrkExtension>
        </extensions>
      </trkpt>
      <trkpt lat="42.80606" lon="0.52373">
        <ele>1047.9</ele>
        <time>2024-07-24T22:44:20.437Z</time>
      </trkpt>
      <trkpt lat="42.80607" lon="0.52495">
        <ele>1038.4</ele>
        <time>2024-07-24T22:44:38.289Z</time>
      </trkpt>
      <trkpt lat="42.8061" lon="0.52519">
        <ele>1037.4</ele>
        <time>2024-07-24T22:44:41.851Z</time>
      </trkpt>
      <trkpt lat="42.80625" lon="0.52593">
        <ele>1029.8</ele>
        <time>2024-07-24T22:44:53.084Z</time>
        <extensions>
          <visugpx:TrkExtension xmlns:visugpx="https://www.visugpx.com/editgpx/">
            <visugpx:node>43</visugpx:node>
            </visugpx:TrkExtension>
        </extensions>
      </trkpt>
      <trkpt lat="42.80656" lon="0.52733">
        <ele>1018.7</ele>
        <time>2024-07-24T22:45:14.481Z</time>
      </trkpt>
      <trkpt lat="42.80664" lon="0.5276">
        <ele>1016.5</ele>
        <time>2024-07-24T22:45:18.742Z</time>
      </trkpt>
      <trkpt lat="42.80715" lon="0.52894">
        <ele>1007.4</ele>
        <time>2024-07-24T22:45:40.829Z</time>
      </trkpt>
      <trkpt lat="42.80725" lon="0.5293">
        <ele>1004.9</ele>
        <time>2024-07-24T22:45:46.462Z</time>
      </trkpt>
      <trkpt lat="42.80731" lon="0.52968">
        <ele>1001.7</ele>
        <time>2024-07-24T22:45:52.149Z</time>
        <extensions>
          <visugpx:TrkExtension xmlns:visugpx="https://www.visugpx.com/editgpx/">
            <visugpx:node>44</visugpx:node>
            </visugpx:TrkExtension>
        </extensions>
      </trkpt>
      <trkpt lat="42.80737" lon="0.53023">
        <ele>996.6</ele>
        <time>2024-07-24T22:46:00.285Z</time>
      </trkpt>
      <trkpt lat="42.80734" lon="0.53068">
        <ele>993</ele>
        <time>2024-07-24T22:46:06.896Z</time>
      </trkpt>
      <trkpt lat="42.80703" lon="0.53225">
        <ele>979.9</ele>
        <time>2024-07-24T22:46:30.685Z</time>
      </trkpt>
      <trkpt lat="42.80686" lon="0.53297">
        <ele>975.1</ele>
        <time>2024-07-24T22:46:41.752Z</time>
      </trkpt>
      <trkpt lat="42.80681" lon="0.53334">
        <ele>973.6</ele>
        <time>2024-07-24T22:46:47.256Z</time>
        <extensions>
          <visugpx:TrkExtension xmlns:visugpx="https://www.visugpx.com/editgpx/">
            <visugpx:node>45</visugpx:node>
            </visugpx:TrkExtension>
        </extensions>
      </trkpt>
      <trkpt lat="42.80681" lon="0.53352">
        <ele>972.9</ele>
        <time>2024-07-24T22:46:49.890Z</time>
      </trkpt>
      <trkpt lat="42.80687" lon="0.53438">
        <ele>972.4</ele>
        <time>2024-07-24T22:47:03.991Z</time>
      </trkpt>
      <trkpt lat="42.80686" lon="0.53458">
        <ele>972</ele>
        <time>2024-07-24T22:47:07.078Z</time>
      </trkpt>
      <trkpt lat="42.80662" lon="0.53594">
        <ele>966.2</ele>
        <time>2024-07-24T22:47:27.544Z</time>
      </trkpt>
      <trkpt lat="42.8066" lon="0.53639">
        <ele>966.3</ele>
        <time>2024-07-24T22:47:35.154Z</time>
      </trkpt>
      <trkpt lat="42.80662" lon="0.53708">
        <ele>966</ele>
        <time>2024-07-24T22:47:46.493Z</time>
        <extensions>
          <visugpx:TrkExtension xmlns:visugpx="https://www.visugpx.com/editgpx/">
            <visugpx:node>46</visugpx:node>
            </visugpx:TrkExtension>
        </extensions>
      </trkpt>
      <trkpt lat="42.80662" lon="0.53743">
        <ele>964.7</ele>
        <time>2024-07-24T22:47:51.614Z</time>
      </trkpt>
      <trkpt lat="42.80658" lon="0.538">
        <ele>962.7</ele>
        <time>2024-07-24T22:47:59.992Z</time>
      </trkpt>
      <trkpt lat="42.80651" lon="0.53861">
        <ele>960.5</ele>
        <time>2024-07-24T22:48:09.026Z</time>
      </trkpt>
      <trkpt lat="42.80628" lon="0.54024">
        <ele>953.3</ele>
        <time>2024-07-24T22:48:33.313Z</time>
      </trkpt>
      <trkpt lat="42.80623" lon="0.54072">
        <ele>950.6</ele>
        <time>2024-07-24T22:48:40.406Z</time>
      </trkpt>
      <trkpt lat="42.80619" lon="0.54135">
        <ele>946.5</ele>
        <time>2024-07-24T22:48:49.659Z</time>
        <extensions>
          <visugpx:TrkExtension xmlns:visugpx="https://www.visugpx.com/editgpx/">
            <visugpx:node>47</visugpx:node>
            </visugpx:TrkExtension>
        </extensions>
      </trkpt>
      <trkpt lat="42.80618" lon="0.54206">
        <ele>944.6</ele>
        <time>2024-07-24T22:49:00.299Z</time>
      </trkpt>
      <trkpt lat="42.8062" lon="0.54298">
        <ele>939.3</ele>
        <time>2024-07-24T22:49:13.766Z</time>
      </trkpt>
      <trkpt lat="42.80625" lon="0.54338">
        <ele>936.9</ele>
        <time>2024-07-24T22:49:19.703Z</time>
      </trkpt>
      <trkpt lat="42.80637" lon="0.54396">
        <ele>934</ele>
        <time>2024-07-24T22:49:28.520Z</time>
      </trkpt>
      <trkpt lat="42.80643" lon="0.54437">
        <ele>933.9</ele>
        <time>2024-07-24T22:49:35.442Z</time>
        <extensions>
          <visugpx:TrkExtension xmlns:visugpx="https://www.visugpx.com/editgpx/">
            <visugpx:node>48</visugpx:node>
            </visugpx:TrkExtension>
        </extensions>
      </trkpt>
      <trkpt lat="42.80646" lon="0.54481">
        <ele>933</ele>
        <time>2024-07-24T22:49:42.236Z</time>
      </trkpt>
      <trkpt lat="42.80645" lon="0.54542">
        <ele>929.9</ele>
        <time>2024-07-24T22:49:51.163Z</time>
      </trkpt>
      <trkpt lat="42.80649" lon="0.54586">
        <ele>928.5</ele>
        <time>2024-07-24T22:49:57.680Z</time>
        <extensions>
          <visugpx:TrkExtension xmlns:visugpx="https://www.visugpx.com/editgpx/">
            <visugpx:node>49</visugpx:node>
            </visugpx:TrkExtension>
        </extensions>
      </trkpt>
      <trkpt lat="42.80655" lon="0.54621">
        <ele>928.8</ele>
        <time>2024-07-24T22:50:03.906Z</time>
      </trkpt>
      <trkpt lat="42.80658" lon="0.54656">
        <ele>927.7</ele>
        <time>2024-07-24T22:50:09.092Z</time>
      </trkpt>
      <trkpt lat="42.80657" lon="0.54719">
        <ele>923.4</ele>
        <time>2024-07-24T22:50:18.312Z</time>
      </trkpt>
      <trkpt lat="42.8065" lon="0.54785">
        <ele>918.9</ele>
        <time>2024-07-24T22:50:28.070Z</time>
      </trkpt>
      <trkpt lat="42.80644" lon="0.54807">
        <ele>914.8</ele>
        <time>2024-07-24T22:50:31.504Z</time>
      </trkpt>
      <trkpt lat="42.80633" lon="0.54837">
        <ele>909.7</ele>
        <time>2024-07-24T22:50:36.411Z</time>
      </trkpt>
      <trkpt lat="42.80629" lon="0.54856">
        <ele>908.1</ele>
        <time>2024-07-24T22:50:39.303Z</time>
      </trkpt>
      <trkpt lat="42.80628" lon="0.54885">
        <ele>908.1</ele>
        <time>2024-07-24T22:50:44.158Z</time>
      </trkpt>
      <trkpt lat="42.80631" lon="0.54939">
        <ele>909.6</ele>
        <time>2024-07-24T22:50:54.358Z</time>
        <extensions>
          <visugpx:TrkExtension xmlns:visugpx="https://www.visugpx.com/editgpx/">
            <visugpx:node>50</visugpx:node>
            </visugpx:TrkExtension>
        </extensions>
      </trkpt>
      <trkpt lat="42.80632" lon="0.54963">
        <ele>909.3</ele>
        <time>2024-07-24T22:50:58.175Z</time>
      </trkpt>
      <trkpt lat="42.80631" lon="0.54995">
        <ele>907.5</ele>
        <time>2024-07-24T22:51:02.861Z</time>
      </trkpt>
      <trkpt lat="42.80601" lon="0.55198">
        <ele>889.1</ele>
        <time>2024-07-24T22:51:33.160Z</time>
      </trkpt>
      <trkpt lat="42.80596" lon="0.55248">
        <ele>884.1</ele>
        <time>2024-07-24T22:51:40.543Z</time>
      </trkpt>
      <trkpt lat="42.80595" lon="0.55306">
        <ele>878.3</ele>
        <time>2024-07-24T22:51:49.032Z</time>
      </trkpt>
      <trkpt lat="42.80597" lon="0.5535">
        <ele>874.4</ele>
        <time>2024-07-24T22:51:55.482Z</time>
        <extensions>
          <visugpx:TrkExtension xmlns:visugpx="https://www.visugpx.com/editgpx/">
            <visugpx:node>51</visugpx:node>
            </visugpx:TrkExtension>
        </extensions>
      </trkpt>
      <trkpt lat="42.80607" lon="0.55432">
        <ele>870.2</ele>
        <time>2024-07-24T22:52:07.645Z</time>
      </trkpt>
      <trkpt lat="42.80611" lon="0.55531">
        <ele>869.6</ele>
        <time>2024-07-24T22:52:23.811Z</time>
        <extensions>
          <visugpx:TrkExtension xmlns:visugpx="https://www.visugpx.com/editgpx/">
            <visugpx:node>52</visugpx:node>
            </visugpx:TrkExtension>
        </extensions>
      </trkpt>
      <trkpt lat="42.80609" lon="0.55566">
        <ele>868.5</ele>
        <time>2024-07-24T22:52:28.976Z</time>
      </trkpt>
      <trkpt lat="42.806" lon="0.55616">
        <ele>863</ele>
        <time>2024-07-24T22:52:36.509Z</time>
      </trkpt>
      <trkpt lat="42.80593" lon="0.55674">
        <ele>859.9</ele>
        <time>2024-07-24T22:52:45.109Z</time>
      </trkpt>
      <trkpt lat="42.80581" lon="0.55724">
        <ele>854.8</ele>
        <time>2024-07-24T22:52:52.807Z</time>
        <extensions>
          <visugpx:TrkExtension xmlns:visugpx="https://www.visugpx.com/editgpx/">
            <visugpx:node>53</visugpx:node>
            </visugpx:TrkExtension>
        </extensions>
      </trkpt>
      <trkpt lat="42.80548" lon="0.55841">
        <ele>840.9</ele>
        <time>2024-07-24T22:53:11.148Z</time>
      </trkpt>
      <trkpt lat="42.80547" lon="0.55859">
        <ele>839.7</ele>
        <time>2024-07-24T22:53:13.789Z</time>
      </trkpt>
      <trkpt lat="42.80548" lon="0.5587">
        <ele>839.6</ele>
        <time>2024-07-24T22:53:15.574Z</time>
        <extensions>
          <visugpx:TrkExtension xmlns:visugpx="https://www.visugpx.com/editgpx/">
            <visugpx:node>54</visugpx:node>
            </visugpx:TrkExtension>
        </extensions>
      </trkpt>
      <trkpt lat="42.80554" lon="0.55889">
        <ele>840.5</ele>
        <time>2024-07-24T22:53:19.755Z</time>
      </trkpt>
      <trkpt lat="42.8056" lon="0.55898">
        <ele>840.4</ele>
        <time>2024-07-24T22:53:21.720Z</time>
      </trkpt>
      <trkpt lat="42.80577" lon="0.55915">
        <ele>840.3</ele>
        <time>2024-07-24T22:53:26.456Z</time>
      </trkpt>
      <trkpt lat="42.80605" lon="0.55933">
        <ele>837.1</ele>
        <time>2024-07-24T22:53:32.630Z</time>
      </trkpt>
      <trkpt lat="42.80617" lon="0.55938">
        <ele>836.7</ele>
        <time>2024-07-24T22:53:35.228Z</time>
      </trkpt>
      <trkpt lat="42.80648" lon="0.55946">
        <ele>839.4</ele>
        <time>2024-07-24T22:53:44.724Z</time>
      </trkpt>
      <trkpt lat="42.80658" lon="0.55956">
        <ele>838.4</ele>
        <time>2024-07-24T22:53:47.197Z</time>
        <extensions>
          <visugpx:TrkExtension xmlns:visugpx="https://www.visugpx.com/editgpx/">
            <visugpx:node>55</visugpx:node>
            </visugpx:TrkExtension>
        </extensions>
      </trkpt>
      <trkpt lat="42.8066" lon="0.55964">
        <ele>835.9</ele>
        <time>2024-07-24T22:53:48.434Z</time>
      </trkpt>
      <trkpt lat="42.80659" lon="0.55974">
        <ele>831.7</ele>
        <time>2024-07-24T22:53:49.911Z</time>
      </trkpt>
      <trkpt lat="42.80654" lon="0.55982">
        <ele>827.6</ele>
        <time>2024-07-24T22:53:51.448Z</time>
      </trkpt>
      <trkpt lat="42.80648" lon="0.55985">
        <ele>825.2</ele>
        <time>2024-07-24T22:53:52.723Z</time>
      </trkpt>
      <trkpt lat="42.8064" lon="0.55984">
        <ele>824</ele>
        <time>2024-07-24T22:53:54.325Z</time>
      </trkpt>
      <trkpt lat="42.80612" lon="0.5597">
        <ele>824.8</ele>
        <time>2024-07-24T22:54:01.718Z</time>
      </trkpt>
      <trkpt lat="42.80591" lon="0.55964">
        <ele>824.3</ele>
        <time>2024-07-24T22:54:06.275Z</time>
        <extensions>
          <visugpx:TrkExtension xmlns:visugpx="https://www.visugpx.com/editgpx/">
            <visugpx:node>56</visugpx:node>
            </visugpx:TrkExtension>
        </extensions>
      </trkpt>
      <trkpt lat="42.80612" lon="0.5597">
        <ele>824.8</ele>
        <time>2024-07-24T22:54:11.535Z</time>
      </trkpt>
      <trkpt lat="42.8064" lon="0.55984">
        <ele>824</ele>
        <time>2024-07-24T22:54:17.802Z</time>
      </trkpt>
      <trkpt lat="42.80648" lon="0.55985">
        <ele>825.2</ele>
        <time>2024-07-24T22:54:20.837Z</time>
      </trkpt>
      <trkpt lat="42.80654" lon="0.55982">
        <ele>827.6</ele>
        <time>2024-07-24T22:54:26.840Z</time>
      </trkpt>
      <trkpt lat="42.80658" lon="0.56001">
        <ele>821.1</ele>
        <time>2024-07-24T22:54:29.732Z</time>
      </trkpt>
      <trkpt lat="42.80692" lon="0.56007">
        <ele>824.5</ele>
        <time>2024-07-24T22:54:40.547Z</time>
        <extensions>
          <visugpx:TrkExtension xmlns:visugpx="https://www.visugpx.com/editgpx/">
            <visugpx:node>57</visugpx:node>
            </visugpx:TrkExtension>
        </extensions>
      </trkpt>
      <trkpt lat="42.80705" lon="0.56007">
        <ele>826.4</ele>
        <time>2024-07-24T22:54:45.401Z</time>
      </trkpt>
      <trkpt lat="42.80754" lon="0.55995">
        <ele>838.3</ele>
        <time>2024-07-24T22:55:12.055Z</time>
      </trkpt>
      <trkpt lat="42.80786" lon="0.5599">
        <ele>845.7</ele>
        <time>2024-07-24T22:55:28.664Z</time>
      </trkpt>
      <trkpt lat="42.80822" lon="0.5599">
        <ele>852.1</ele>
        <time>2024-07-24T22:55:43.801Z</time>
      </trkpt>
      <trkpt lat="42.80855" lon="0.55995">
        <ele>856.2</ele>
        <time>2024-07-24T22:55:55.215Z</time>
      </trkpt>
      <trkpt lat="42.80883" lon="0.56003">
        <ele>857.7</ele>
        <time>2024-07-24T22:56:02.919Z</time>
      </trkpt>
      <trkpt lat="42.80904" lon="0.56013">
        <ele>857.8</ele>
        <time>2024-07-24T22:56:08.060Z</time>
      </trkpt>
      <trkpt lat="42.80922" lon="0.56024">
        <ele>856.9</ele>
        <time>2024-07-24T22:56:11.995Z</time>
      </trkpt>
      <trkpt lat="42.80929" lon="0.56024">
        <ele>857.6</ele>
        <time>2024-07-24T22:56:14.209Z</time>
      </trkpt>
      <trkpt lat="42.80933" lon="0.56022">
        <ele>858.9</ele>
        <time>2024-07-24T22:56:17.207Z</time>
        <extensions>
          <visugpx:TrkExtension xmlns:visugpx="https://www.visugpx.com/editgpx/">
            <visugpx:node>58</visugpx:node>
            </visugpx:TrkExtension>
        </extensions>
      </trkpt>
      <trkpt lat="42.80969" lon="0.55996">
        <ele>868.6</ele>
        <time>2024-07-24T22:56:38.936Z</time>
      </trkpt>
      <trkpt lat="42.81071" lon="0.55956">
        <ele>879.1</ele>
        <time>2024-07-24T22:57:12.389Z</time>
      </trkpt>
      <trkpt lat="42.81132" lon="0.55915">
        <ele>891.4</ele>
        <time>2024-07-24T22:57:41.324Z</time>
      </trkpt>
      <trkpt lat="42.81159" lon="0.55893">
        <ele>896.7</ele>
        <time>2024-07-24T22:57:54.090Z</time>
      </trkpt>
      <trkpt lat="42.81177" lon="0.55881">
        <ele>899.5</ele>
        <time>2024-07-24T22:58:01.397Z</time>
      </trkpt>
      <trkpt lat="42.81192" lon="0.55877">
        <ele>899.5</ele>
        <time>2024-07-24T22:58:04.881Z</time>
      </trkpt>
      <trkpt lat="42.81211" lon="0.55877">
        <ele>897.8</ele>
        <time>2024-07-24T22:58:08.670Z</time>
        <extensions>
          <visugpx:TrkExtension xmlns:visugpx="https://www.visugpx.com/editgpx/">
            <visugpx:node>59</visugpx:node>
            </visugpx:TrkExtension>
        </extensions>
      </trkpt>
      <trkpt lat="42.81218" lon="0.55877">
        <ele>897.2</ele>
        <time>2024-07-24T22:58:10.066Z</time>
      </trkpt>
      <trkpt lat="42.81228" lon="0.55872">
        <ele>898.1</ele>
        <time>2024-07-24T22:58:13.260Z</time>
      </trkpt>
      <trkpt lat="42.8124" lon="0.5586">
        <ele>900.4</ele>
        <time>2024-07-24T22:58:18.992Z</time>
      </trkpt>
      <trkpt lat="42.81314" lon="0.5577">
        <ele>918</ele>
        <time>2024-07-24T22:59:00.640Z</time>
      </trkpt>
      <trkpt lat="42.81334" lon="0.55754">
        <ele>920.6</ele>
        <time>2024-07-24T22:59:08.295Z</time>
        <extensions>
          <visugpx:TrkExtension xmlns:visugpx="https://www.visugpx.com/editgpx/">
            <visugpx:node>60</visugpx:node>
            </visugpx:TrkExtension>
        </extensions>
      </trkpt>
      <trkpt lat="42.81345" lon="0.55749">
        <ele>921.1</ele>
        <time>2024-07-24T22:59:11.324Z</time>
      </trkpt>
      <trkpt lat="42.8136" lon="0.55747">
        <ele>920.2</ele>
        <time>2024-07-24T22:59:14.330Z</time>
      </trkpt>
      <trkpt lat="42.8142" lon="0.55747">
        <ele>927</ele>
        <time>2024-07-24T22:59:34.224Z</time>
      </trkpt>
      <trkpt lat="42.81445" lon="0.55744">
        <ele>929.9</ele>
        <time>2024-07-24T22:59:42.610Z</time>
      </trkpt>
      <trkpt lat="42.81473" lon="0.55734">
        <ele>932.9</ele>
        <time>2024-07-24T22:59:51.885Z</time>
      </trkpt>
      <trkpt lat="42.81506" lon="0.55719">
        <ele>936.6</ele>
        <time>2024-07-24T23:00:03.138Z</time>
      </trkpt>
      <trkpt lat="42.81528" lon="0.55705">
        <ele>940.6</ele>
        <time>2024-07-24T23:00:12.854Z</time>
      </trkpt>
      <trkpt lat="42.81595" lon="0.5564">
        <ele>950.6</ele>
        <time>2024-07-24T23:00:40.935Z</time>
      </trkpt>
      <trkpt lat="42.81611" lon="0.5563">
        <ele>950.6</ele>
        <time>2024-07-24T23:00:44.947Z</time>
      </trkpt>
      <trkpt lat="42.81625" lon="0.55624">
        <ele>950.8</ele>
        <time>2024-07-24T23:00:48.436Z</time>
      </trkpt>
      <trkpt lat="42.81662" lon="0.55612">
        <ele>951.9</ele>
        <time>2024-07-24T23:00:57.927Z</time>
        <extensions>
          <visugpx:TrkExtension xmlns:visugpx="https://www.visugpx.com/editgpx/">
            <visugpx:node>61</visugpx:node>
            </visugpx:TrkExtension>
        </extensions>
      </trkpt>
      <trkpt lat="42.81678" lon="0.55604">
        <ele>952.6</ele>
        <time>2024-07-24T23:01:02.350Z</time>
      </trkpt>
      <trkpt lat="42.81687" lon="0.55591">
        <ele>954.7</ele>
        <time>2024-07-24T23:01:07.507Z</time>
      </trkpt>
      <trkpt lat="42.81691" lon="0.55572">
        <ele>957.6</ele>
        <time>2024-07-24T23:01:14.151Z</time>
      </trkpt>
      <trkpt lat="42.81693" lon="0.55489">
        <ele>968.3</ele>
        <time>2024-07-24T23:01:39.556Z</time>
      </trkpt>
      <trkpt lat="42.81698" lon="0.55463">
        <ele>972.2</ele>
        <time>2024-07-24T23:01:48.513Z</time>
      </trkpt>
      <trkpt lat="42.81706" lon="0.5544">
        <ele>976</ele>
        <time>2024-07-24T23:01:57.187Z</time>
      </trkpt>
      <trkpt lat="42.8171" lon="0.55434">
        <ele>976.8</ele>
        <time>2024-07-24T23:01:59.315Z</time>
      </trkpt>
      <trkpt lat="42.81703" lon="0.55434">
        <ele>978.1</ele>
        <time>2024-07-24T23:02:02.349Z</time>
      </trkpt>
      <trkpt lat="42.817" lon="0.55436">
        <ele>978.1</ele>
        <time>2024-07-24T23:02:03.110Z</time>
      </trkpt>
      <trkpt lat="42.81664" lon="0.55478">
        <ele>977.5</ele>
        <time>2024-07-24T23:02:13.501Z</time>
        <extensions>
          <visugpx:TrkExtension xmlns:visugpx="https://www.visugpx.com/editgpx/">
            <visugpx:node>62</visugpx:node>
            </visugpx:TrkExtension>
        </extensions>
      </trkpt>
      <trkpt lat="42.817" lon="0.55436">
        <ele>978.1</ele>
        <time>2024-07-24T23:02:24.733Z</time>
      </trkpt>
      <trkpt lat="42.81703" lon="0.55434">
        <ele>978.1</ele>
        <time>2024-07-24T23:02:25.494Z</time>
      </trkpt>
      <trkpt lat="42.8171" lon="0.55434">
        <ele>976.8</ele>
        <time>2024-07-24T23:02:26.890Z</time>
      </trkpt>
      <trkpt lat="42.81719" lon="0.55419">
        <ele>979</ele>
        <time>2024-07-24T23:02:32.370Z</time>
      </trkpt>
      <trkpt lat="42.81765" lon="0.55367">
        <ele>986.5</ele>
        <time>2024-07-24T23:02:53.063Z</time>
      </trkpt>
      <trkpt lat="42.81787" lon="0.55348">
        <ele>988.3</ele>
        <time>2024-07-24T23:03:00.476Z</time>
      </trkpt>
      <trkpt lat="42.81836" lon="0.55313">
        <ele>991.9</ele>
        <time>2024-07-24T23:03:16.011Z</time>
      </trkpt>
      <trkpt lat="42.81916" lon="0.55228">
        <ele>1002.1</ele>
        <time>2024-07-24T23:03:48.162Z</time>
      </trkpt>
      <trkpt lat="42.81948" lon="0.55199">
        <ele>1005.3</ele>
        <time>2024-07-24T23:03:59.637Z</time>
        <extensions>
          <visugpx:TrkExtension xmlns:visugpx="https://www.visugpx.com/editgpx/">
            <visugpx:node>63</visugpx:node>
            </visugpx:TrkExtension>
        </extensions>
      </trkpt>
      <trkpt lat="42.81956" lon="0.5519">
        <ele>1005.9</ele>
        <time>2024-07-24T23:04:02.480Z</time>
      </trkpt>
      <trkpt lat="42.81967" lon="0.55174">
        <ele>1007.4</ele>
        <time>2024-07-24T23:04:07.451Z</time>
      </trkpt>
      <trkpt lat="42.82016" lon="0.5508">
        <ele>1016.3</ele>
        <time>2024-07-24T23:04:34.705Z</time>
      </trkpt>
      <trkpt lat="42.82036" lon="0.55048">
        <ele>1019.9</ele>
        <time>2024-07-24T23:04:45.054Z</time>
      </trkpt>
      <trkpt lat="42.82057" lon="0.55024">
        <ele>1021.6</ele>
        <time>2024-07-24T23:04:52.671Z</time>
      </trkpt>
      <trkpt lat="42.82089" lon="0.54982">
        <ele>1026.7</ele>
        <time>2024-07-24T23:05:07.476Z</time>
      </trkpt>
      <trkpt lat="42.82118" lon="0.54955">
        <ele>1029</ele>
        <time>2024-07-24T23:05:17.352Z</time>
      </trkpt>
      <trkpt lat="42.82123" lon="0.54946">
        <ele>1030.4</ele>
        <time>2024-07-24T23:05:20.720Z</time>
      </trkpt>
      <trkpt lat="42.82131" lon="0.54923">
        <ele>1034.7</ele>
        <time>2024-07-24T23:05:30.370Z</time>
      </trkpt>
      <trkpt lat="42.82138" lon="0.54911">
        <ele>1036.1</ele>
        <time>2024-07-24T23:05:34.250Z</time>
      </trkpt>
      <trkpt lat="42.822" lon="0.5486">
        <ele>1037.4</ele>
        <time>2024-07-24T23:05:51.703Z</time>
      </trkpt>
      <trkpt lat="42.82214" lon="0.54839">
        <ele>1038.6</ele>
        <time>2024-07-24T23:05:57.405Z</time>
      </trkpt>
      <trkpt lat="42.82239" lon="0.54781">
        <ele>1043.7</ele>
        <time>2024-07-24T23:06:13.200Z</time>
        <extensions>
          <visugpx:TrkExtension xmlns:visugpx="https://www.visugpx.com/editgpx/">
            <visugpx:node>64</visugpx:node>
            </visugpx:TrkExtension>
        </extensions>
      </trkpt>
      <trkpt lat="42.82262" lon="0.54735">
        <ele>1050.3</ele>
        <time>2024-07-24T23:06:29.349Z</time>
      </trkpt>
      <trkpt lat="42.82278" lon="0.54713">
        <ele>1053.6</ele>
        <time>2024-07-24T23:06:37.804Z</time>
      </trkpt>
      <trkpt lat="42.82289" lon="0.54704">
        <ele>1055.1</ele>
        <time>2024-07-24T23:06:42.112Z</time>
      </trkpt>
      <trkpt lat="42.82305" lon="0.54696">
        <ele>1055.4</ele>
        <time>2024-07-24T23:06:46.215Z</time>
      </trkpt>
      <trkpt lat="42.82325" lon="0.54691">
        <ele>1056.9</ele>
        <time>2024-07-24T23:06:52.095Z</time>
        <extensions>
          <visugpx:TrkExtension xmlns:visugpx="https://www.visugpx.com/editgpx/">
            <visugpx:node>65</visugpx:node>
            </visugpx:TrkExtension>
        </extensions>
      </trkpt>
      <trkpt lat="42.82339" lon="0.5469">
        <ele>1057.4</ele>
        <time>2024-07-24T23:06:55.670Z</time>
      </trkpt>
      <trkpt lat="42.82351" lon="0.54694">
        <ele>1056.5</ele>
        <time>2024-07-24T23:06:58.133Z</time>
      </trkpt>
      <trkpt lat="42.82401" lon="0.54723">
        <ele>1054.5</ele>
        <time>2024-07-24T23:07:09.219Z</time>
      </trkpt>
      <trkpt lat="42.82418" lon="0.54737">
        <ele>1056.2</ele>
        <time>2024-07-24T23:07:15.197Z</time>
      </trkpt>
      <trkpt lat="42.82425" lon="0.54746">
        <ele>1056.7</ele>
        <time>2024-07-24T23:07:17.784Z</time>
      </trkpt>
      <trkpt lat="42.82441" lon="0.54783">
        <ele>1055.8</ele>
        <time>2024-07-24T23:07:24.370Z</time>
      </trkpt>
      <trkpt lat="42.82454" lon="0.54803">
        <ele>1057.4</ele>
        <time>2024-07-24T23:07:30.191Z</time>
      </trkpt>
      <trkpt lat="42.82466" lon="0.54811">
        <ele>1058.3</ele>
        <time>2024-07-24T23:07:33.971Z</time>
        <extensions>
          <visugpx:TrkExtension xmlns:visugpx="https://www.visugpx.com/editgpx/">
            <visugpx:node>66</visugpx:node>
            </visugpx:TrkExtension>
        </extensions>
      </trkpt>
      <trkpt lat="42.82472" lon="0.54816">
        <ele>1058.8</ele>
        <time>2024-07-24T23:07:35.986Z</time>
      </trkpt>
      <trkpt lat="42.82488" lon="0.54818">
        <ele>1059.5</ele>
        <time>2024-07-24T23:07:40.189Z</time>
      </trkpt>
      <trkpt lat="42.82533" lon="0.54817">
        <ele>1062.1</ele>
        <time>2024-07-24T23:07:52.524Z</time>
        <extensions>
          <visugpx:TrkExtension xmlns:visugpx="https://www.visugpx.com/editgpx/">
            <visugpx:node>67</visugpx:node>
            </visugpx:TrkExtension>
        </extensions>
      </trkpt>
      <trkpt lat="42.82537" lon="0.54817">
        <ele>1062.4</ele>
        <time>2024-07-24T23:07:53.686Z</time>
      </trkpt>
      <trkpt lat="42.82544" lon="0.5482">
        <ele>1062.9</ele>
        <time>2024-07-24T23:07:55.767Z</time>
      </trkpt>
      <trkpt lat="42.82547" lon="0.54826">
        <ele>1062.8</ele>
        <time>2024-07-24T23:07:56.914Z</time>
      </trkpt>
      <trkpt lat="42.82546" lon="0.54846">
        <ele>1062</ele>
        <time>2024-07-24T23:07:59.846Z</time>
      </trkpt>
      <trkpt lat="42.82539" lon="0.54857">
        <ele>1061.5</ele>
        <time>2024-07-24T23:08:01.976Z</time>
      </trkpt>
      <trkpt lat="42.82511" lon="0.54871">
        <ele>1063.4</ele>
        <time>2024-07-24T23:08:10.313Z</time>
      </trkpt>
      <trkpt lat="42.82473" lon="0.54886">
        <ele>1068.4</ele>
        <time>2024-07-24T23:08:24.056Z</time>
      </trkpt>
      <trkpt lat="42.82452" lon="0.54891">
        <ele>1070.1</ele>
        <time>2024-07-24T23:08:30.346Z</time>
      </trkpt>
      <trkpt lat="42.82411" lon="0.54896">
        <ele>1071.7</ele>
        <time>2024-07-24T23:08:40.952Z</time>
      </trkpt>
      <trkpt lat="42.82404" lon="0.549">
        <ele>1072</ele>
        <time>2024-07-24T23:08:42.912Z</time>
        <extensions>
          <visugpx:TrkExtension xmlns:visugpx="https://www.visugpx.com/editgpx/">
            <visugpx:node>68</visugpx:node>
            </visugpx:TrkExtension>
        </extensions>
      </trkpt>
      <trkpt lat="42.82397" lon="0.54906">
        <ele>1072.4</ele>
        <time>2024-07-24T23:08:45.109Z</time>
      </trkpt>
      <trkpt lat="42.82394" lon="0.54924">
        <ele>1073.5</ele>
        <time>2024-07-24T23:08:49.124Z</time>
      </trkpt>
      <trkpt lat="42.82395" lon="0.55074">
        <ele>1079.3</ele>
        <time>2024-07-24T23:09:18.780Z</time>
      </trkpt>
      <trkpt lat="42.82399" lon="0.55079">
        <ele>1079.9</ele>
        <time>2024-07-24T23:09:20.562Z</time>
      </trkpt>
      <trkpt lat="42.8239" lon="0.55079">
        <ele>1079</ele>
        <time>2024-07-24T23:09:22.357Z</time>
        <extensions>
          <visugpx:TrkExtension xmlns:visugpx="https://www.visugpx.com/editgpx/">
            <visugpx:node>69</visugpx:node>
            </visugpx:TrkExtension>
        </extensions>
      </trkpt>
      <trkpt lat="42.82401" lon="0.5508">
        <ele>1080.2</ele>
        <time>2024-07-24T23:09:25.955Z</time>
      </trkpt>
      <trkpt lat="42.82458" lon="0.55069">
        <ele>1086.4</ele>
        <time>2024-07-24T23:09:44.666Z</time>
      </trkpt>
      <trkpt lat="42.825" lon="0.55057">
        <ele>1090.1</ele>
        <time>2024-07-24T23:09:57.610Z</time>
      </trkpt>
      <trkpt lat="42.82541" lon="0.55056">
        <ele>1094.5</ele>
        <time>2024-07-24T23:10:10.919Z</time>
      </trkpt>
      <trkpt lat="42.82593" lon="0.55063">
        <ele>1099.2</ele>
        <time>2024-07-24T23:10:26.884Z</time>
      </trkpt>
      <trkpt lat="42.82626" lon="0.55063">
        <ele>1101</ele>
        <time>2024-07-24T23:10:35.833Z</time>
      </trkpt>
      <trkpt lat="42.82658" lon="0.55059">
        <ele>1102.1</ele>
        <time>2024-07-24T23:10:43.990Z</time>
      </trkpt>
      <trkpt lat="42.8268" lon="0.55051">
        <ele>1101.3</ele>
        <time>2024-07-24T23:10:48.658Z</time>
      </trkpt>
      <trkpt lat="42.8269" lon="0.55054">
        <ele>1101.8</ele>
        <time>2024-07-24T23:10:51.383Z</time>
      </trkpt>
      <trkpt lat="42.82715" lon="0.55067">
        <ele>1103.6</ele>
        <time>2024-07-24T23:10:58.952Z</time>
      </trkpt>
      <trkpt lat="42.82753" lon="0.55072">
        <ele>1105.7</ele>
        <time>2024-07-24T23:11:09.321Z</time>
      </trkpt>
      <trkpt lat="42.82764" lon="0.55071">
        <ele>1106.7</ele>
        <time>2024-07-24T23:11:12.698Z</time>
      </trkpt>
      <trkpt lat="42.82782" lon="0.55064">
        <ele>1107.8</ele>
        <time>2024-07-24T23:11:17.845Z</time>
      </trkpt>
      <trkpt lat="42.82826" lon="0.55043">
        <ele>1110.7</ele>
        <time>2024-07-24T23:11:30.812Z</time>
      </trkpt>
      <trkpt lat="42.82892" lon="0.55029">
        <ele>1114.5</ele>
        <time>2024-07-24T23:11:49.065Z</time>
        <extensions>
          <visugpx:TrkExtension xmlns:visugpx="https://www.visugpx.com/editgpx/">
            <visugpx:node>70</visugpx:node>
            </visugpx:TrkExtension>
        </extensions>
      </trkpt>
      <trkpt lat="42.82904" lon="0.55028">
        <ele>1115.1</ele>
        <time>2024-07-24T23:11:52.276Z</time>
      </trkpt>
      <trkpt lat="42.8292" lon="0.55031">
        <ele>1116.6</ele>
        <time>2024-07-24T23:11:57.261Z</time>
      </trkpt>
      <trkpt lat="42.82927" lon="0.55038">
        <ele>1117.8</ele>
        <time>2024-07-24T23:12:00.409Z</time>
      </trkpt>
      <trkpt lat="42.82946" lon="0.55067">
        <ele>1123.1</ele>
        <time>2024-07-24T23:12:12.777Z</time>
      </trkpt>
      <trkpt lat="42.82953" lon="0.55072">
        <ele>1124.1</ele>
        <time>2024-07-24T23:12:15.524Z</time>
      </trkpt>
      <trkpt lat="42.82965" lon="0.55076">
        <ele>1125.2</ele>
        <time>2024-07-24T23:12:19.286Z</time>
      </trkpt>
      <trkpt lat="42.82987" lon="0.55074">
        <ele>1125.5</ele>
        <time>2024-07-24T23:12:24.529Z</time>
      </trkpt>
      <trkpt lat="42.83" lon="0.55068">
        <ele>1124.7</ele>
        <time>2024-07-24T23:12:27.266Z</time>
      </trkpt>
      <trkpt lat="42.83011" lon="0.55059">
        <ele>1122.7</ele>
        <time>2024-07-24T23:12:29.824Z</time>
      </trkpt>
      <trkpt lat="42.83024" lon="0.55052">
        <ele>1121.4</ele>
        <time>2024-07-24T23:12:32.612Z</time>
      </trkpt>
      <trkpt lat="42.83032" lon="0.5505">
        <ele>1121</ele>
        <time>2024-07-24T23:12:34.234Z</time>
      </trkpt>
      <trkpt lat="42.83041" lon="0.5505">
        <ele>1120.9</ele>
        <time>2024-07-24T23:12:36.217Z</time>
      </trkpt>
      <trkpt lat="42.83056" lon="0.55053">
        <ele>1121.4</ele>
        <time>2024-07-24T23:12:40.050Z</time>
      </trkpt>
      <trkpt lat="42.83097" lon="0.55069">
        <ele>1122.9</ele>
        <time>2024-07-24T23:12:50.907Z</time>
        <extensions>
          <visugpx:TrkExtension xmlns:visugpx="https://www.visugpx.com/editgpx/">
            <visugpx:node>71</visugpx:node>
            </visugpx:TrkExtension>
        </extensions>
      </trkpt>
      <trkpt lat="42.83122" lon="0.55076">
        <ele>1123.7</ele>
        <time>2024-07-24T23:12:57.326Z</time>
      </trkpt>
      <trkpt lat="42.83147" lon="0.5508">
        <ele>1124</ele>
        <time>2024-07-24T23:13:03.279Z</time>
      </trkpt>
      <trkpt lat="42.83221" lon="0.5509">
        <ele>1127.1</ele>
        <time>2024-07-24T23:13:22.614Z</time>
      </trkpt>
      <trkpt lat="42.8327" lon="0.55093">
        <ele>1129.9</ele>
        <time>2024-07-24T23:13:36.027Z</time>
      </trkpt>
      <trkpt lat="42.83348" lon="0.55086">
        <ele>1132</ele>
        <time>2024-07-24T23:13:55.407Z</time>
      </trkpt>
      <trkpt lat="42.8341" lon="0.55072">
        <ele>1132.1</ele>
        <time>2024-07-24T23:14:09.802Z</time>
      </trkpt>
      <trkpt lat="42.83432" lon="0.55069">
        <ele>1132.7</ele>
        <time>2024-07-24T23:14:15.288Z</time>
      </trkpt>
      <trkpt lat="42.83459" lon="0.55068">
        <ele>1134.1</ele>
        <time>2024-07-24T23:14:22.547Z</time>
      </trkpt>
      <trkpt lat="42.83494" lon="0.55064">
        <ele>1135.8</ele>
        <time>2024-07-24T23:14:31.881Z</time>
      </trkpt>
      <trkpt lat="42.83578" lon="0.55063">
        <ele>1146.8</ele>
        <time>2024-07-24T23:15:01.548Z</time>
      </trkpt>
      <trkpt lat="42.8359" lon="0.55059">
        <ele>1148.4</ele>
        <time>2024-07-24T23:15:05.889Z</time>
        <extensions>
          <visugpx:TrkExtension xmlns:visugpx="https://www.visugpx.com/editgpx/">
            <visugpx:node>72</visugpx:node>
            </visugpx:TrkExtension>
        </extensions>
      </trkpt>
      <trkpt lat="42.83604" lon="0.55048">
        <ele>1148.8</ele>
        <time>2024-07-24T23:15:09.868Z</time>
      </trkpt>
      <trkpt lat="42.83608" lon="0.55038">
        <ele>1147.5</ele>
        <time>2024-07-24T23:15:11.534Z</time>
      </trkpt>
      <trkpt lat="42.83622" lon="0.54919">
        <ele>1151.8</ele>
        <time>2024-07-24T23:15:35.041Z</time>
      </trkpt>
      <trkpt lat="42.83627" lon="0.54896">
        <ele>1152</ele>
        <time>2024-07-24T23:15:39.194Z</time>
      </trkpt>
      <trkpt lat="42.83635" lon="0.54871">
        <ele>1152.5</ele>
        <time>2024-07-24T23:15:44.124Z</time>
      </trkpt>
      <trkpt lat="42.83646" lon="0.54845">
        <ele>1154.1</ele>
        <time>2024-07-24T23:15:50.465Z</time>
      </trkpt>
      <trkpt lat="42.83667" lon="0.54804">
        <ele>1159</ele>
        <time>2024-07-24T23:16:03.542Z</time>
      </trkpt>
      <trkpt lat="42.83697" lon="0.54735">
        <ele>1162.9</ele>
        <time>2024-07-24T23:16:20.128Z</time>
      </trkpt>
      <trkpt lat="42.83723" lon="0.54682">
        <ele>1165.1</ele>
        <time>2024-07-24T23:16:32.500Z</time>
      </trkpt>
      <trkpt lat="42.83735" lon="0.54663">
        <ele>1166.5</ele>
        <time>2024-07-24T23:16:37.860Z</time>
        <extensions>
          <visugpx:TrkExtension xmlns:visugpx="https://www.visugpx.com/editgpx/">
            <visugpx:node>73</visugpx:node>
            </visugpx:TrkExtension>
        </extensions>
      </trkpt>
      <trkpt lat="42.83767" lon="0.54614">
        <ele>1171.2</ele>
        <time>2024-07-24T23:16:52.959Z</time>
      </trkpt>
      <trkpt lat="42.83808" lon="0.54558">
        <ele>1176.3</ele>
        <time>2024-07-24T23:17:10.564Z</time>
      </trkpt>
      <trkpt lat="42.83823" lon="0.54531">
        <ele>1176.9</ele>
        <time>2024-07-24T23:17:16.669Z</time>
      </trkpt>
      <trkpt lat="42.83833" lon="0.54518">
        <ele>1177.8</ele>
        <time>2024-07-24T23:17:20.550Z</time>
      </trkpt>
      <trkpt lat="42.8392" lon="0.54426">
        <ele>1188.2</ele>
        <time>2024-07-24T23:17:54.716Z</time>
      </trkpt>
      <trkpt lat="42.84007" lon="0.54318">
        <ele>1194.7</ele>
        <time>2024-07-24T23:18:26.693Z</time>
      </trkpt>
      <trkpt lat="42.84061" lon="0.54262">
        <ele>1199.7</ele>
        <time>2024-07-24T23:18:46.303Z</time>
      </trkpt>
      <trkpt lat="42.84082" lon="0.54236">
        <ele>1200.6</ele>
        <time>2024-07-24T23:18:53.445Z</time>
      </trkpt>
      <trkpt lat="42.84162" lon="0.54118">
        <ele>1200.3</ele>
        <time>2024-07-24T23:19:20.094Z</time>
      </trkpt>
      <trkpt lat="42.84212" lon="0.54061">
        <ele>1197.8</ele>
        <time>2024-07-24T23:19:33.329Z</time>
      </trkpt>
      <trkpt lat="42.84231" lon="0.54044">
        <ele>1196.6</ele>
        <time>2024-07-24T23:19:37.861Z</time>
      </trkpt>
      <trkpt lat="42.84259" lon="0.54026">
        <ele>1195.6</ele>
        <time>2024-07-24T23:19:44.261Z</time>
      </trkpt>
      <trkpt lat="42.84303" lon="0.54015">
        <ele>1197</ele>
        <time>2024-07-24T23:19:55.510Z</time>
      </trkpt>
      <trkpt lat="42.84342" lon="0.5401">
        <ele>1198.4</ele>
        <time>2024-07-24T23:20:05.501Z</time>
      </trkpt>
      <trkpt lat="42.84352" lon="0.54006">
        <ele>1198.9</ele>
        <time>2024-07-24T23:20:08.267Z</time>
      </trkpt>
      <trkpt lat="42.84357" lon="0.54002">
        <ele>1198.8</ele>
        <time>2024-07-24T23:20:09.520Z</time>
      </trkpt>
      <trkpt lat="42.84378" lon="0.53973">
        <ele>1198.3</ele>
        <time>2024-07-24T23:20:15.994Z</time>
      </trkpt>
      <trkpt lat="42.84383" lon="0.5396">
        <ele>1198.1</ele>
        <time>2024-07-24T23:20:18.312Z</time>
      </trkpt>
      <trkpt lat="42.84384" lon="0.53952">
        <ele>1197.9</ele>
        <time>2024-07-24T23:20:19.538Z</time>
        <extensions>
          <visugpx:TrkExtension xmlns:visugpx="https://www.visugpx.com/editgpx/">
            <visugpx:node>74</visugpx:node>
            </visugpx:TrkExtension>
        </extensions>
      </trkpt>
      <trkpt lat="42.84385" lon="0.53948">
        <ele>1197.8</ele>
        <time>2024-07-24T23:20:20.178Z</time>
      </trkpt>
      <trkpt lat="42.84383" lon="0.53937">
        <ele>1198</ele>
        <time>2024-07-24T23:20:22.220Z</time>
      </trkpt>
      <trkpt lat="42.84378" lon="0.53927">
        <ele>1198.3</ele>
        <time>2024-07-24T23:20:24.470Z</time>
      </trkpt>
      <trkpt lat="42.84347" lon="0.5389">
        <ele>1201.4</ele>
        <time>2024-07-24T23:20:36.440Z</time>
      </trkpt>
      <trkpt lat="42.84336" lon="0.53866">
        <ele>1201.2</ele>
        <time>2024-07-24T23:20:41.033Z</time>
      </trkpt>
      <trkpt lat="42.84333" lon="0.53845">
        <ele>1200.4</ele>
        <time>2024-07-24T23:20:44.161Z</time>
      </trkpt>
      <trkpt lat="42.84333" lon="0.53819">
        <ele>1198.9</ele>
        <time>2024-07-24T23:20:47.963Z</time>
      </trkpt>
      <trkpt lat="42.84328" lon="0.53795">
        <ele>1197.5</ele>
        <time>2024-07-24T23:20:51.612Z</time>
        <extensions>
          <visugpx:TrkExtension xmlns:visugpx="https://www.visugpx.com/editgpx/">
            <visugpx:node>75</visugpx:node>
            </visugpx:TrkExtension>
        </extensions>
      </trkpt>
      <trkpt lat="42.84321" lon="0.53754">
        <ele>1196.3</ele>
        <time>2024-07-24T23:20:57.871Z</time>
      </trkpt>
      <trkpt lat="42.84318" lon="0.53702">
        <ele>1196.6</ele>
        <time>2024-07-24T23:21:06.802Z</time>
      </trkpt>
      <trkpt lat="42.84319" lon="0.53644">
        <ele>1197.8</ele>
        <time>2024-07-24T23:21:17.394Z</time>
      </trkpt>
      <trkpt lat="42.84327" lon="0.53572">
        <ele>1199.5</ele>
        <time>2024-07-24T23:21:30.843Z</time>
      </trkpt>
      <trkpt lat="42.84338" lon="0.53528">
        <ele>1199.8</ele>
        <time>2024-07-24T23:21:38.827Z</time>
      </trkpt>
      <trkpt lat="42.84355" lon="0.53495">
        <ele>1200.9</ele>
        <time>2024-07-24T23:21:46.405Z</time>
      </trkpt>
      <trkpt lat="42.84381" lon="0.53438">
        <ele>1202</ele>
        <time>2024-07-24T23:21:58.434Z</time>
      </trkpt>
      <trkpt lat="42.84398" lon="0.53398">
        <ele>1204.7</ele>
        <time>2024-07-24T23:22:08.433Z</time>
      </trkpt>
      <trkpt lat="42.84425" lon="0.53324">
        <ele>1207.4</ele>
        <time>2024-07-24T23:22:24.338Z</time>
      </trkpt>
      <trkpt lat="42.84443" lon="0.53285">
        <ele>1209.2</ele>
        <time>2024-07-24T23:22:33.462Z</time>
      </trkpt>
      <trkpt lat="42.84458" lon="0.53259">
        <ele>1210.2</ele>
        <time>2024-07-24T23:22:39.760Z</time>
      </trkpt>
      <trkpt lat="42.84503" lon="0.53195">
        <ele>1214.2</ele>
        <time>2024-07-24T23:22:57.803Z</time>
      </trkpt>
      <trkpt lat="42.84531" lon="0.53142">
        <ele>1218.2</ele>
        <time>2024-07-24T23:23:12.117Z</time>
      </trkpt>
      <trkpt lat="42.84567" lon="0.53058">
        <ele>1220.1</ele>
        <time>2024-07-24T23:23:29.790Z</time>
      </trkpt>
      <trkpt lat="42.84575" lon="0.53043">
        <ele>1219.6</ele>
        <time>2024-07-24T23:23:32.565Z</time>
      </trkpt>
      <trkpt lat="42.84645" lon="0.52935">
        <ele>1228.8</ele>
        <time>2024-07-24T23:24:04.537Z</time>
      </trkpt>
      <trkpt lat="42.84664" lon="0.52908">
        <ele>1230.4</ele>
        <time>2024-07-24T23:24:12.071Z</time>
      </trkpt>
      <trkpt lat="42.84683" lon="0.52889">
        <ele>1233.7</ele>
        <time>2024-07-24T23:24:20.672Z</time>
      </trkpt>
      <trkpt lat="42.84691" lon="0.52877">
        <ele>1235.1</ele>
        <time>2024-07-24T23:24:24.677Z</time>
      </trkpt>
      <trkpt lat="42.84692" lon="0.52858">
        <ele>1234.1</ele>
        <time>2024-07-24T23:24:27.462Z</time>
        <extensions>
          <visugpx:TrkExtension xmlns:visugpx="https://www.visugpx.com/editgpx/">
            <visugpx:node>76</visugpx:node>
            </visugpx:TrkExtension>
        </extensions>
      </trkpt>
      <trkpt lat="42.84689" lon="0.52781">
        <ele>1230.1</ele>
        <time>2024-07-24T23:24:38.737Z</time>
      </trkpt>
      <trkpt lat="42.84694" lon="0.52733">
        <ele>1229.6</ele>
        <time>2024-07-24T23:24:46.498Z</time>
      </trkpt>
      <trkpt lat="42.84713" lon="0.52661">
        <ele>1232.6</ele>
        <time>2024-07-24T23:25:01.659Z</time>
      </trkpt>
      <trkpt lat="42.84719" lon="0.52644">
        <ele>1232.4</ele>
        <time>2024-07-24T23:25:04.676Z</time>
      </trkpt>
      <trkpt lat="42.8474" lon="0.52599">
        <ele>1237</ele>
        <time>2024-07-24T23:25:17.842Z</time>
      </trkpt>
      <trkpt lat="42.84791" lon="0.52502">
        <ele>1239.6</ele>
        <time>2024-07-24T23:25:39.736Z</time>
      </trkpt>
      <trkpt lat="42.84893" lon="0.52355">
        <ele>1246.7</ele>
        <time>2024-07-24T23:26:19.101Z</time>
        <extensions>
          <visugpx:TrkExtension xmlns:visugpx="https://www.visugpx.com/editgpx/">
            <visugpx:node>77</visugpx:node>
            </visugpx:TrkExtension>
        </extensions>
      </trkpt>
      <trkpt lat="42.84927" lon="0.52323">
        <ele>1247.8</ele>
        <time>2024-07-24T23:26:29.334Z</time>
      </trkpt>
      <trkpt lat="42.84967" lon="0.52298">
        <ele>1250.9</ele>
        <time>2024-07-24T23:26:41.915Z</time>
      </trkpt>
      <trkpt lat="42.84984" lon="0.52292">
        <ele>1251.2</ele>
        <time>2024-07-24T23:26:46.136Z</time>
      </trkpt>
      <trkpt lat="42.85" lon="0.52292">
        <ele>1252.1</ele>
        <time>2024-07-24T23:26:50.499Z</time>
      </trkpt>
      <trkpt lat="42.85032" lon="0.52299">
        <ele>1253.7</ele>
        <time>2024-07-24T23:26:59.139Z</time>
      </trkpt>
      <trkpt lat="42.85064" lon="0.52315">
        <ele>1254.6</ele>
        <time>2024-07-24T23:27:07.577Z</time>
      </trkpt>
      <trkpt lat="42.85084" lon="0.52328">
        <ele>1256.2</ele>
        <time>2024-07-24T23:27:13.949Z</time>
      </trkpt>
      <trkpt lat="42.85091" lon="0.52327">
        <ele>1255.7</ele>
        <time>2024-07-24T23:27:15.353Z</time>
      </trkpt>
      <trkpt lat="42.85093" lon="0.52325">
        <ele>1255.3</ele>
        <time>2024-07-24T23:27:15.847Z</time>
      </trkpt>
      <trkpt lat="42.85094" lon="0.52319">
        <ele>1254.2</ele>
        <time>2024-07-24T23:27:16.747Z</time>
      </trkpt>
      <trkpt lat="42.85093" lon="0.52296">
        <ele>1251.7</ele>
        <time>2024-07-24T23:27:20.116Z</time>
        <extensions>
          <visugpx:TrkExtension xmlns:visugpx="https://www.visugpx.com/editgpx/">
            <visugpx:node>78</visugpx:node>
            </visugpx:TrkExtension>
        </extensions>
      </trkpt>
      <trkpt lat="42.85087" lon="0.52242">
        <ele>1250.9</ele>
        <time>2024-07-24T23:27:28.704Z</time>
      </trkpt>
      <trkpt lat="42.85087" lon="0.52224">
        <ele>1250.9</ele>
        <time>2024-07-24T23:27:31.712Z</time>
      </trkpt>
      <trkpt lat="42.85095" lon="0.52157">
        <ele>1250.6</ele>
        <time>2024-07-24T23:27:42.847Z</time>
      </trkpt>
      <trkpt lat="42.85105" lon="0.52095">
        <ele>1250.5</ele>
        <time>2024-07-24T23:27:53.385Z</time>
      </trkpt>
      <trkpt lat="42.85144" lon="0.51995">
        <ele>1252.8</ele>
        <time>2024-07-24T23:28:14.028Z</time>
      </trkpt>
      <trkpt lat="42.8515" lon="0.51964">
        <ele>1250.9</ele>
        <time>2024-07-24T23:28:18.715Z</time>
      </trkpt>
      <trkpt lat="42.85181" lon="0.51925">
        <ele>1251.4</ele>
        <time>2024-07-24T23:28:28.687Z</time>
        <extensions>
          <visugpx:TrkExtension xmlns:visugpx="https://www.visugpx.com/editgpx/">
            <visugpx:node>79</visugpx:node>
            </visugpx:TrkExtension>
        </extensions>
      </trkpt>
      <trkpt lat="42.85207" lon="0.51895">
        <ele>1248.7</ele>
        <time>2024-07-24T23:28:35.479Z</time>
      </trkpt>
      <trkpt lat="42.85218" lon="0.5189">
        <ele>1248.8</ele>
        <time>2024-07-24T23:28:38.193Z</time>
      </trkpt>
      <trkpt lat="42.85242" lon="0.5189">
        <ele>1250.6</ele>
        <time>2024-07-24T23:28:45.161Z</time>
      </trkpt>
      <trkpt lat="42.85249" lon="0.51882">
        <ele>1250.4</ele>
        <time>2024-07-24T23:28:47.109Z</time>
      </trkpt>
      <trkpt lat="42.85256" lon="0.51863">
        <ele>1250</ele>
        <time>2024-07-24T23:28:50.396Z</time>
      </trkpt>
      <trkpt lat="42.85263" lon="0.51824">
        <ele>1252.6</ele>
        <time>2024-07-24T23:28:59.340Z</time>
      </trkpt>
      <trkpt lat="42.8526" lon="0.5181">
        <ele>1253.1</ele>
        <time>2024-07-24T23:29:02.167Z</time>
      </trkpt>
      <trkpt lat="42.85257" lon="0.51805">
        <ele>1252.8</ele>
        <time>2024-07-24T23:29:03.111Z</time>
      </trkpt>
      <trkpt lat="42.85266" lon="0.51798">
        <ele>1255.8</ele>
        <time>2024-07-24T23:29:09.943Z</time>
      </trkpt>
      <trkpt lat="42.85266" lon="0.51793">
        <ele>1256.4</ele>
        <time>2024-07-24T23:29:11.403Z</time>
      </trkpt>
      <trkpt lat="42.85261" lon="0.51777">
        <ele>1256.8</ele>
        <time>2024-07-24T23:29:14.611Z</time>
      </trkpt>
      <trkpt lat="42.85255" lon="0.51737">
        <ele>1258</ele>
        <time>2024-07-24T23:29:22.353Z</time>
      </trkpt>
      <trkpt lat="42.85262" lon="0.51711">
        <ele>1260.7</ele>
        <time>2024-07-24T23:29:29.577Z</time>
      </trkpt>
      <trkpt lat="42.85264" lon="0.51676">
        <ele>1259.7</ele>
        <time>2024-07-24T23:29:34.796Z</time>
      </trkpt>
      <trkpt lat="42.85272" lon="0.51638">
        <ele>1258.9</ele>
        <time>2024-07-24T23:29:40.873Z</time>
      </trkpt>
      <trkpt lat="42.85277" lon="0.51622">
        <ele>1257.7</ele>
        <time>2024-07-24T23:29:43.416Z</time>
      </trkpt>
      <trkpt lat="42.85287" lon="0.51601">
        <ele>1257.6</ele>
        <time>2024-07-24T23:29:47.531Z</time>
      </trkpt>
      <trkpt lat="42.8529" lon="0.51589">
        <ele>1256.1</ele>
        <time>2024-07-24T23:29:49.385Z</time>
      </trkpt>
      <trkpt lat="42.853" lon="0.51577">
        <ele>1257.9</ele>
        <time>2024-07-24T23:29:54.161Z</time>
        <extensions>
          <visugpx:TrkExtension xmlns:visugpx="https://www.visugpx.com/editgpx/">
            <visugpx:node>80</visugpx:node>
            </visugpx:TrkExtension>
        </extensions>
      </trkpt>
      <trkpt lat="42.85308" lon="0.51563">
        <ele>1258.9</ele>
        <time>2024-07-24T23:29:57.963Z</time>
      </trkpt>
      <trkpt lat="42.85316" lon="0.51541">
        <ele>1259.2</ele>
        <time>2024-07-24T23:30:02.284Z</time>
      </trkpt>
      <trkpt lat="42.85323" lon="0.51528">
        <ele>1261.1</ele>
        <time>2024-07-24T23:30:06.944Z</time>
      </trkpt>
      <trkpt lat="42.85334" lon="0.51459">
        <ele>1257.9</ele>
        <time>2024-07-24T23:30:17.268Z</time>
      </trkpt>
      <trkpt lat="42.85363" lon="0.5138">
        <ele>1262.3</ele>
        <time>2024-07-24T23:30:35.631Z</time>
      </trkpt>
      <trkpt lat="42.85389" lon="0.51281">
        <ele>1267.3</ele>
        <time>2024-07-24T23:30:57.265Z</time>
      </trkpt>
      <trkpt lat="42.85401" lon="0.51222">
        <ele>1268.4</ele>
        <time>2024-07-24T23:31:08.310Z</time>
      </trkpt>
      <trkpt lat="42.85412" lon="0.51185">
        <ele>1270.1</ele>
        <time>2024-07-24T23:31:16.340Z</time>
      </trkpt>
      <trkpt lat="42.85423" lon="0.51126">
        <ele>1270.5</ele>
        <time>2024-07-24T23:31:26.799Z</time>
      </trkpt>
      <trkpt lat="42.85443" lon="0.51075">
        <ele>1274.5</ele>
        <time>2024-07-24T23:31:39.951Z</time>
      </trkpt>
      <trkpt lat="42.85448" lon="0.51056">
        <ele>1273.5</ele>
        <time>2024-07-24T23:31:42.903Z</time>
      </trkpt>
      <trkpt lat="42.85454" lon="0.51022">
        <ele>1274.4</ele>
        <time>2024-07-24T23:31:49.429Z</time>
      </trkpt>
      <trkpt lat="42.85459" lon="0.50977">
        <ele>1271.6</ele>
        <time>2024-07-24T23:31:56.083Z</time>
      </trkpt>
      <trkpt lat="42.85495" lon="0.50915">
        <ele>1276.1</ele>
        <time>2024-07-24T23:32:13.067Z</time>
        <extensions>
          <visugpx:TrkExtension xmlns:visugpx="https://www.visugpx.com/editgpx/">
            <visugpx:node>81</visugpx:node>
            </visugpx:TrkExtension>
        </extensions>
      </trkpt>
      <trkpt lat="42.85519" lon="0.50865">
        <ele>1276</ele>
        <time>2024-07-24T23:32:22.983Z</time>
      </trkpt>
      <trkpt lat="42.85541" lon="0.50835">
        <ele>1280.1</ele>
        <time>2024-07-24T23:32:34.003Z</time>
      </trkpt>
      <trkpt lat="42.8555" lon="0.5082">
        <ele>1282.2</ele>
        <time>2024-07-24T23:32:39.340Z</time>
      </trkpt>
      <trkpt lat="42.85567" lon="0.50776">
        <ele>1283</ele>
        <time>2024-07-24T23:32:48.239Z</time>
      </trkpt>
      <trkpt lat="42.85589" lon="0.50733">
        <ele>1284.6</ele>
        <time>2024-07-24T23:32:58.232Z</time>
      </trkpt>
      <trkpt lat="42.85594" lon="0.50725">
        <ele>1285.2</ele>
        <time>2024-07-24T23:33:00.491Z</time>
      </trkpt>
      <trkpt lat="42.85631" lon="0.50685">
        <ele>1291.5</ele>
        <time>2024-07-24T23:33:17.316Z</time>
      </trkpt>
      <trkpt lat="42.85661" lon="0.50647">
        <ele>1295.8</ele>
        <time>2024-07-24T23:33:30.498Z</time>
      </trkpt>
      <trkpt lat="42.85675" lon="0.50618">
        <ele>1297</ele>
        <time>2024-07-24T23:33:37.235Z</time>
      </trkpt>
      <trkpt lat="42.85686" lon="0.50586">
        <ele>1299.5</ele>
        <time>2024-07-24T23:33:45.332Z</time>
      </trkpt>
      <trkpt lat="42.85709" lon="0.50534">
        <ele>1305.9</ele>
        <time>2024-07-24T23:34:01.808Z</time>
      </trkpt>
      <trkpt lat="42.85712" lon="0.50474">
        <ele>1302.9</ele>
        <time>2024-07-24T23:34:10.600Z</time>
      </trkpt>
      <trkpt lat="42.85734" lon="0.50393">
        <ele>1308.1</ele>
        <time>2024-07-24T23:34:29.435Z</time>
      </trkpt>
      <trkpt lat="42.85798" lon="0.50302">
        <ele>1318.6</ele>
        <time>2024-07-24T23:35:00.112Z</time>
      </trkpt>
      <trkpt lat="42.85814" lon="0.50275">
        <ele>1321.2</ele>
        <time>2024-07-24T23:35:08.225Z</time>
      </trkpt>
      <trkpt lat="42.85831" lon="0.5024">
        <ele>1323.9</ele>
        <time>2024-07-24T23:35:17.557Z</time>
      </trkpt>
      <trkpt lat="42.85844" lon="0.502">
        <ele>1327</ele>
        <time>2024-07-24T23:35:27.587Z</time>
      </trkpt>
      <trkpt lat="42.85861" lon="0.50116">
        <ele>1332</ele>
        <time>2024-07-24T23:35:46.340Z</time>
      </trkpt>
      <trkpt lat="42.85866" lon="0.50078">
        <ele>1333.1</ele>
        <time>2024-07-24T23:35:53.632Z</time>
      </trkpt>
      <trkpt lat="42.85868" lon="0.50076">
        <ele>1333.9</ele>
        <time>2024-07-24T23:35:55.509Z</time>
      </trkpt>
      <trkpt lat="42.85872" lon="0.50076">
        <ele>1335.6</ele>
        <time>2024-07-24T23:36:00.014Z</time>
      </trkpt>
      <trkpt lat="42.85873" lon="0.50063">
        <ele>1335.6</ele>
        <time>2024-07-24T23:36:02.198Z</time>
        <extensions>
          <visugpx:TrkExtension xmlns:visugpx="https://www.visugpx.com/editgpx/">
            <visugpx:node>82</visugpx:node>
            </visugpx:TrkExtension>
        </extensions>
      </trkpt>
      <trkpt lat="42.85872" lon="0.50076">
        <ele>1335.6</ele>
        <time>2024-07-24T23:36:04.382Z</time>
      </trkpt>
      <trkpt lat="42.85875" lon="0.50078">
        <ele>1336.9</ele>
        <time>2024-07-24T23:36:07.690Z</time>
      </trkpt>
      <trkpt lat="42.85878" lon="0.50085">
        <ele>1338.4</ele>
        <time>2024-07-24T23:36:11.050Z</time>
      </trkpt>
      <trkpt lat="42.85873" lon="0.50109">
        <ele>1337.5</ele>
        <time>2024-07-24T23:36:14.698Z</time>
      </trkpt>
      <trkpt lat="42.85872" lon="0.50123">
        <ele>1337.1</ele>
        <time>2024-07-24T23:36:16.790Z</time>
      </trkpt>
      <trkpt lat="42.85876" lon="0.50294">
        <ele>1342.3</ele>
        <time>2024-07-24T23:36:49.375Z</time>
      </trkpt>
      <trkpt lat="42.85872" lon="0.50403">
        <ele>1348.2</ele>
        <time>2024-07-24T23:37:12.504Z</time>
        <extensions>
          <visugpx:TrkExtension xmlns:visugpx="https://www.visugpx.com/editgpx/">
            <visugpx:node>83</visugpx:node>
            </visugpx:TrkExtension>
        </extensions>
      </trkpt>
      <trkpt lat="42.85866" lon="0.5043">
        <ele>1350.4</ele>
        <time>2024-07-24T23:37:19.195Z</time>
      </trkpt>
      <trkpt lat="42.85822" lon="0.5052">
        <ele>1356.1</ele>
        <time>2024-07-24T23:37:41.978Z</time>
      </trkpt>
      <trkpt lat="42.85806" lon="0.50573">
        <ele>1361</ele>
        <time>2024-07-24T23:37:56.072Z</time>
      </trkpt>
      <trkpt lat="42.85741" lon="0.50753">
        <ele>1373.9</ele>
        <time>2024-07-24T23:38:40.667Z</time>
      </trkpt>
      <trkpt lat="42.85675" lon="0.50966">
        <ele>1389.4</ele>
        <time>2024-07-24T23:39:32.727Z</time>
      </trkpt>
      <trkpt lat="42.85659" lon="0.5101">
        <ele>1393.9</ele>
        <time>2024-07-24T23:39:45.172Z</time>
      </trkpt>
      <trkpt lat="42.85648" lon="0.51046">
        <ele>1396.3</ele>
        <time>2024-07-24T23:39:53.729Z</time>
      </trkpt>
      <trkpt lat="42.85641" lon="0.5108">
        <ele>1397.9</ele>
        <time>2024-07-24T23:40:00.920Z</time>
      </trkpt>
      <trkpt lat="42.85637" lon="0.51117">
        <ele>1399.3</ele>
        <time>2024-07-24T23:40:08.270Z</time>
      </trkpt>
      <trkpt lat="42.85634" lon="0.51153">
        <ele>1401.2</ele>
        <time>2024-07-24T23:40:15.892Z</time>
      </trkpt>
      <trkpt lat="42.85633" lon="0.51196">
        <ele>1404.3</ele>
        <time>2024-07-24T23:40:25.811Z</time>
      </trkpt>
      <trkpt lat="42.85619" lon="0.51357">
        <ele>1408.5</ele>
        <time>2024-07-24T23:40:56.086Z</time>
      </trkpt>
      <trkpt lat="42.8562" lon="0.51378">
        <ele>1408.1</ele>
        <time>2024-07-24T23:40:59.337Z</time>
        <extensions>
          <visugpx:TrkExtension xmlns:visugpx="https://www.visugpx.com/editgpx/">
            <visugpx:node>84</visugpx:node>
            </visugpx:TrkExtension>
        </extensions>
      </trkpt>
      <trkpt lat="42.85625" lon="0.51391">
        <ele>1408.1</ele>
        <time>2024-07-24T23:41:01.790Z</time>
      </trkpt>
      <trkpt lat="42.85635" lon="0.51399">
        <ele>1408.2</ele>
        <time>2024-07-24T23:41:04.504Z</time>
      </trkpt>
      <trkpt lat="42.85645" lon="0.51398">
        <ele>1408.2</ele>
        <time>2024-07-24T23:41:06.789Z</time>
      </trkpt>
      <trkpt lat="42.8565" lon="0.51394">
        <ele>1408.7</ele>
        <time>2024-07-24T23:41:08.538Z</time>
        <extensions>
          <visugpx:TrkExtension xmlns:visugpx="https://www.visugpx.com/editgpx/">
            <visugpx:node>85</visugpx:node>
            </visugpx:TrkExtension>
        </extensions>
      </trkpt>
      <trkpt lat="42.85654" lon="0.51386">
        <ele>1410</ele>
        <time>2024-07-24T23:41:11.584Z</time>
      </trkpt>
      <trkpt lat="42.85653" lon="0.51369">
        <ele>1413.4</ele>
        <time>2024-07-24T23:41:19.246Z</time>
      </trkpt>
      <trkpt lat="42.85638" lon="0.51351">
        <ele>1415.4</ele>
        <time>2024-07-24T23:41:25.569Z</time>
      </trkpt>
      <trkpt lat="42.85632" lon="0.51341">
        <ele>1413.7</ele>
        <time>2024-07-24T23:41:27.458Z</time>
      </trkpt>
      <trkpt lat="42.85631" lon="0.51334">
        <ele>1413.6</ele>
        <time>2024-07-24T23:41:28.582Z</time>
      </trkpt>
      <trkpt lat="42.85635" lon="0.51304">
        <ele>1414.9</ele>
        <time>2024-07-24T23:41:34.716Z</time>
      </trkpt>
      <trkpt lat="42.85659" lon="0.51198">
        <ele>1420.5</ele>
        <time>2024-07-24T23:41:57.845Z</time>
      </trkpt>
      <trkpt lat="42.85666" lon="0.51121">
        <ele>1420.6</ele>
        <time>2024-07-24T23:42:10.880Z</time>
      </trkpt>
      <trkpt lat="42.85671" lon="0.51102">
        <ele>1421</ele>
        <time>2024-07-24T23:42:14.550Z</time>
      </trkpt>
      <trkpt lat="42.85681" lon="0.5108">
        <ele>1422.4</ele>
        <time>2024-07-24T23:42:20.037Z</time>
      </trkpt>
      <trkpt lat="42.85712" lon="0.51035">
        <ele>1425.9</ele>
        <time>2024-07-24T23:42:33.284Z</time>
      </trkpt>
      <trkpt lat="42.85807" lon="0.50846">
        <ele>1433</ele>
        <time>2024-07-24T23:43:17.045Z</time>
      </trkpt>
      <trkpt lat="42.85842" lon="0.50782">
        <ele>1437.1</ele>
        <time>2024-07-24T23:43:33.758Z</time>
      </trkpt>
      <trkpt lat="42.85858" lon="0.50747">
        <ele>1437.4</ele>
        <time>2024-07-24T23:43:40.864Z</time>
      </trkpt>
      <trkpt lat="42.8588" lon="0.50709">
        <ele>1438.7</ele>
        <time>2024-07-24T23:43:49.944Z</time>
      </trkpt>
      <trkpt lat="42.85933" lon="0.50644">
        <ele>1445.3</ele>
        <time>2024-07-24T23:44:11.920Z</time>
      </trkpt>
      <trkpt lat="42.85953" lon="0.50622">
        <ele>1446.2</ele>
        <time>2024-07-24T23:44:18.458Z</time>
      </trkpt>
      <trkpt lat="42.85966" lon="0.50609">
        <ele>1445.3</ele>
        <time>2024-07-24T23:44:21.673Z</time>
      </trkpt>
      <trkpt lat="42.85978" lon="0.50602">
        <ele>1444.8</ele>
        <time>2024-07-24T23:44:24.324Z</time>
        <extensions>
          <visugpx:TrkExtension xmlns:visugpx="https://www.visugpx.com/editgpx/">
            <visugpx:node>86</visugpx:node>
            </visugpx:TrkExtension>
        </extensions>
      </trkpt>
      <trkpt lat="42.85988" lon="0.50597">
        <ele>1443.9</ele>
        <time>2024-07-24T23:44:26.448Z</time>
      </trkpt>
      <trkpt lat="42.86005" lon="0.50592">
        <ele>1443.5</ele>
        <time>2024-07-24T23:44:30.144Z</time>
      </trkpt>
      <trkpt lat="42.86021" lon="0.50592">
        <ele>1445.1</ele>
        <time>2024-07-24T23:44:35.206Z</time>
      </trkpt>
      <trkpt lat="42.8604" lon="0.50597">
        <ele>1449.9</ele>
        <time>2024-07-24T23:44:45.954Z</time>
      </trkpt>
      <trkpt lat="42.86061" lon="0.50607">
        <ele>1457.5</ele>
        <time>2024-07-24T23:45:04.174Z</time>
      </trkpt>
      <trkpt lat="42.86066" lon="0.50608">
        <ele>1459.4</ele>
        <time>2024-07-24T23:45:08.929Z</time>
      </trkpt>
      <trkpt lat="42.8607" lon="0.50606">
        <ele>1460.5</ele>
        <time>2024-07-24T23:45:11.396Z</time>
      </trkpt>
      <trkpt lat="42.86071" lon="0.50603">
        <ele>1460.6</ele>
        <time>2024-07-24T23:45:12.023Z</time>
        <extensions>
          <visugpx:TrkExtension xmlns:visugpx="https://www.visugpx.com/editgpx/">
            <visugpx:node>87</visugpx:node>
            </visugpx:TrkExtension>
        </extensions>
      </trkpt>
      <trkpt lat="42.86074" lon="0.50589">
        <ele>1460.4</ele>
        <time>2024-07-24T23:45:14.325Z</time>
      </trkpt>
      <trkpt lat="42.86073" lon="0.50563">
        <ele>1458.3</ele>
        <time>2024-07-24T23:45:18.131Z</time>
      </trkpt>
      <trkpt lat="42.86078" lon="0.50527">
        <ele>1458.8</ele>
        <time>2024-07-24T23:45:24.618Z</time>
      </trkpt>
      <trkpt lat="42.86088" lon="0.50491">
        <ele>1461.6</ele>
        <time>2024-07-24T23:45:33.522Z</time>
      </trkpt>
      <trkpt lat="42.86099" lon="0.50376">
        <ele>1469.3</ele>
        <time>2024-07-24T23:45:59.552Z</time>
      </trkpt>
      <trkpt lat="42.86098" lon="0.50361">
        <ele>1469.5</ele>
        <time>2024-07-24T23:46:02.214Z</time>
      </trkpt>
      <trkpt lat="42.86087" lon="0.50334">
        <ele>1469.9</ele>
        <time>2024-07-24T23:46:07.667Z</time>
      </trkpt>
      <trkpt lat="42.86085" lon="0.50317">
        <ele>1470.9</ele>
        <time>2024-07-24T23:46:11.384Z</time>
      </trkpt>
      <trkpt lat="42.86089" lon="0.50263">
        <ele>1475.2</ele>
        <time>2024-07-24T23:46:24.332Z</time>
      </trkpt>
      <trkpt lat="42.86117" lon="0.50126">
        <ele>1485.6</ele>
        <time>2024-07-24T23:46:57.287Z</time>
      </trkpt>
      <trkpt lat="42.86127" lon="0.50055">
        <ele>1493.6</ele>
        <time>2024-07-24T23:47:17.427Z</time>
      </trkpt>
      <trkpt lat="42.86132" lon="0.49982">
        <ele>1495</ele>
        <time>2024-07-24T23:47:30.717Z</time>
      </trkpt>
      <trkpt lat="42.86137" lon="0.49963">
        <ele>1495.6</ele>
        <time>2024-07-24T23:47:34.550Z</time>
      </trkpt>
      <trkpt lat="42.8615" lon="0.49926">
        <ele>1496.7</ele>
        <time>2024-07-24T23:47:42.242Z</time>
      </trkpt>
      <trkpt lat="42.86163" lon="0.49906">
        <ele>1501.2</ele>
        <time>2024-07-24T23:47:52.343Z</time>
      </trkpt>
      <trkpt lat="42.86172" lon="0.49881">
        <ele>1504.7</ele>
        <time>2024-07-24T23:48:00.722Z</time>
      </trkpt>
      <trkpt lat="42.86176" lon="0.49854">
        <ele>1508.1</ele>
        <time>2024-07-24T23:48:08.913Z</time>
      </trkpt>
      <trkpt lat="42.86173" lon="0.49791">
        <ele>1508.4</ele>
        <time>2024-07-24T23:48:19.674Z</time>
      </trkpt>
      <trkpt lat="42.8619" lon="0.49707">
        <ele>1517.1</ele>
        <time>2024-07-24T23:48:42.667Z</time>
      </trkpt>
      <trkpt lat="42.86215" lon="0.49662">
        <ele>1521.1</ele>
        <time>2024-07-24T23:48:55.609Z</time>
      </trkpt>
      <trkpt lat="42.86221" lon="0.49648">
        <ele>1522.6</ele>
        <time>2024-07-24T23:48:59.736Z</time>
      </trkpt>
      <trkpt lat="42.86232" lon="0.49613">
        <ele>1524</ele>
        <time>2024-07-24T23:49:07.197Z</time>
      </trkpt>
      <trkpt lat="42.86255" lon="0.49563">
        <ele>1530</ele>
        <time>2024-07-24T23:49:22.913Z</time>
      </trkpt>
      <trkpt lat="42.86263" lon="0.49537">
        <ele>1532.7</ele>
        <time>2024-07-24T23:49:30.205Z</time>
      </trkpt>
      <trkpt lat="42.86269" lon="0.49479">
        <ele>1534.1</ele>
        <time>2024-07-24T23:49:41.046Z</time>
      </trkpt>
      <trkpt lat="42.86273" lon="0.49459">
        <ele>1535.2</ele>
        <time>2024-07-24T23:49:45.419Z</time>
      </trkpt>
      <trkpt lat="42.86293" lon="0.49397">
        <ele>1539.1</ele>
        <time>2024-07-24T23:50:00.009Z</time>
      </trkpt>
      <trkpt lat="42.86305" lon="0.49377">
        <ele>1541.6</ele>
        <time>2024-07-24T23:50:06.725Z</time>
      </trkpt>
      <trkpt lat="42.86314" lon="0.49368">
        <ele>1542.5</ele>
        <time>2024-07-24T23:50:10.027Z</time>
        <extensions>
          <visugpx:TrkExtension xmlns:visugpx="https://www.visugpx.com/editgpx/">
            <visugpx:node>88</visugpx:node>
            </visugpx:TrkExtension>
        </extensions>
      </trkpt>
      <trkpt lat="42.86318" lon="0.49363">
        <ele>1542.9</ele>
        <time>2024-07-24T23:50:11.596Z</time>
      </trkpt>
      <trkpt lat="42.86346" lon="0.49346">
        <ele>1545.4</ele>
        <time>2024-07-24T23:50:20.695Z</time>
      </trkpt>
      <trkpt lat="42.86358" lon="0.49342">
        <ele>1546.8</ele>
        <time>2024-07-24T23:50:24.790Z</time>
      </trkpt>
      <trkpt lat="42.86396" lon="0.49339">
        <ele>1551.2</ele>
        <time>2024-07-24T23:50:37.512Z</time>
      </trkpt>
      <trkpt lat="42.86435" lon="0.49342">
        <ele>1559.9</ele>
        <time>2024-07-24T23:50:57.096Z</time>
      </trkpt>
      <trkpt lat="42.86445" lon="0.49339">
        <ele>1560.3</ele>
        <time>2024-07-24T23:50:59.735Z</time>
      </trkpt>
      <trkpt lat="42.86472" lon="0.49321">
        <ele>1560.9</ele>
        <time>2024-07-24T23:51:07.025Z</time>
      </trkpt>
      <trkpt lat="42.86494" lon="0.49311">
        <ele>1560.6</ele>
        <time>2024-07-24T23:51:12.105Z</time>
      </trkpt>
      <trkpt lat="42.86502" lon="0.49309">
        <ele>1561.1</ele>
        <time>2024-07-24T23:51:14.362Z</time>
      </trkpt>
      <trkpt lat="42.86513" lon="0.4931">
        <ele>1561.4</ele>
        <time>2024-07-24T23:51:17.098Z</time>
      </trkpt>
      <trkpt lat="42.86544" lon="0.49325">
        <ele>1566.3</ele>
        <time>2024-07-24T23:51:29.507Z</time>
      </trkpt>
      <trkpt lat="42.86566" lon="0.49332">
        <ele>1567.5</ele>
        <time>2024-07-24T23:51:35.604Z</time>
      </trkpt>
      <trkpt lat="42.86598" lon="0.49337">
        <ele>1568.1</ele>
        <time>2024-07-24T23:51:43.384Z</time>
      </trkpt>
      <trkpt lat="42.8661" lon="0.49341">
        <ele>1568.3</ele>
        <time>2024-07-24T23:51:46.345Z</time>
      </trkpt>
      <trkpt lat="42.86619" lon="0.49348">
        <ele>1567.6</ele>
        <time>2024-07-24T23:51:48.411Z</time>
        <extensions>
          <visugpx:TrkExtension xmlns:visugpx="https://www.visugpx.com/editgpx/">
            <visugpx:node>89</visugpx:node>
            </visugpx:TrkExtension>
        </extensions>
      </trkpt>
      <trkpt lat="42.86632" lon="0.49375">
        <ele>1570.2</ele>
        <time>2024-07-24T23:51:56.164Z</time>
      </trkpt>
      <trkpt lat="42.86658" lon="0.49417">
        <ele>1573.6</ele>
        <time>2024-07-24T23:52:08.242Z</time>
      </trkpt>
      <trkpt lat="42.86664" lon="0.49431">
        <ele>1576.6</ele>
        <time>2024-07-24T23:52:14.963Z</time>
      </trkpt>
      <trkpt lat="42.86676" lon="0.49443">
        <ele>1577.9</ele>
        <time>2024-07-24T23:52:19.468Z</time>
      </trkpt>
      <trkpt lat="42.86688" lon="0.49449">
        <ele>1576.9</ele>
        <time>2024-07-24T23:52:22.017Z</time>
      </trkpt>
      <trkpt lat="42.86717" lon="0.49474">
        <ele>1580.8</ele>
        <time>2024-07-24T23:52:33.405Z</time>
      </trkpt>
      <trkpt lat="42.86722" lon="0.49476">
        <ele>1580.4</ele>
        <time>2024-07-24T23:52:34.444Z</time>
      </trkpt>
      <trkpt lat="42.86732" lon="0.49474">
        <ele>1579.8</ele>
        <time>2024-07-24T23:52:36.460Z</time>
      </trkpt>
      <trkpt lat="42.86743" lon="0.49463">
        <ele>1579.9</ele>
        <time>2024-07-24T23:52:39.640Z</time>
        <extensions>
          <visugpx:TrkExtension xmlns:visugpx="https://www.visugpx.com/editgpx/">
            <visugpx:node>90</visugpx:node>
            </visugpx:TrkExtension>
        </extensions>
      </trkpt>
      <trkpt lat="42.86754" lon="0.49448">
        <ele>1582.8</ele>
        <time>2024-07-24T23:52:46.401Z</time>
      </trkpt>
      <trkpt lat="42.86763" lon="0.49427">
        <ele>1584.7</ele>
        <time>2024-07-24T23:52:52.173Z</time>
      </trkpt>
      <trkpt lat="42.86766" lon="0.49407">
        <ele>1585.6</ele>
        <time>2024-07-24T23:52:56.306Z</time>
      </trkpt>
      <trkpt lat="42.86766" lon="0.49386">
        <ele>1587.5</ele>
        <time>2024-07-24T23:53:01.597Z</time>
      </trkpt>
      <trkpt lat="42.86763" lon="0.49368">
        <ele>1589.2</ele>
        <time>2024-07-24T23:53:06.284Z</time>
      </trkpt>
      <trkpt lat="42.86748" lon="0.49323">
        <ele>1591.1</ele>
        <time>2024-07-24T23:53:16.042Z</time>
      </trkpt>
      <trkpt lat="42.8673" lon="0.49303">
        <ele>1590.8</ele>
        <time>2024-07-24T23:53:21.128Z</time>
      </trkpt>
      <trkpt lat="42.86726" lon="0.4929">
        <ele>1592.6</ele>
        <time>2024-07-24T23:53:25.414Z</time>
      </trkpt>
      <trkpt lat="42.86722" lon="0.49271">
        <ele>1594.6</ele>
        <time>2024-07-24T23:53:30.664Z</time>
      </trkpt>
      <trkpt lat="42.86721" lon="0.49253">
        <ele>1596.1</ele>
        <time>2024-07-24T23:53:35.052Z</time>
      </trkpt>
      <trkpt lat="42.86723" lon="0.49236">
        <ele>1597.4</ele>
        <time>2024-07-24T23:53:39.086Z</time>
      </trkpt>
      <trkpt lat="42.86728" lon="0.4922">
        <ele>1599.4</ele>
        <time>2024-07-24T23:53:44.039Z</time>
        <extensions>
          <visugpx:TrkExtension xmlns:visugpx="https://www.visugpx.com/editgpx/">
            <visugpx:node>91</visugpx:node>
            </visugpx:TrkExtension>
        </extensions>
      </trkpt>
      <trkpt lat="42.86735" lon="0.49199">
        <ele>1600.2</ele>
        <time>2024-07-24T23:53:48.517Z</time>
      </trkpt>
      <trkpt lat="42.86748" lon="0.49181">
        <ele>1601.4</ele>
        <time>2024-07-24T23:53:53.713Z</time>
      </trkpt>
      <trkpt lat="42.86753" lon="0.49178">
        <ele>1602.3</ele>
        <time>2024-07-24T23:53:55.899Z</time>
      </trkpt>
      <trkpt lat="42.86781" lon="0.49172">
        <ele>1609.7</ele>
        <time>2024-07-24T23:54:12.506Z</time>
      </trkpt>
      <trkpt lat="42.86787" lon="0.49167">
        <ele>1609.5</ele>
        <time>2024-07-24T23:54:13.976Z</time>
      </trkpt>
      <trkpt lat="42.86844" lon="0.49082">
        <ele>1616.2</ele>
        <time>2024-07-24T23:54:38.856Z</time>
      </trkpt>
      <trkpt lat="42.86888" lon="0.49036">
        <ele>1621.7</ele>
        <time>2024-07-24T23:54:56.346Z</time>
      </trkpt>
      <trkpt lat="42.86908" lon="0.49012">
        <ele>1624.5</ele>
        <time>2024-07-24T23:55:04.924Z</time>
      </trkpt>
      <trkpt lat="42.86915" lon="0.49003">
        <ele>1625.1</ele>
        <time>2024-07-24T23:55:07.601Z</time>
      </trkpt>
      <trkpt lat="42.86927" lon="0.48979">
        <ele>1625.6</ele>
        <time>2024-07-24T23:55:12.824Z</time>
      </trkpt>
      <trkpt lat="42.86976" lon="0.48932">
        <ele>1633.3</ele>
        <time>2024-07-24T23:55:33.795Z</time>
      </trkpt>
      <trkpt lat="42.86992" lon="0.48912">
        <ele>1635.5</ele>
        <time>2024-07-24T23:55:40.693Z</time>
      </trkpt>
      <trkpt lat="42.87026" lon="0.48875">
        <ele>1639.7</ele>
        <time>2024-07-24T23:55:54.289Z</time>
      </trkpt>
      <trkpt lat="42.87051" lon="0.48851">
        <ele>1641.4</ele>
        <time>2024-07-24T23:56:02.607Z</time>
      </trkpt>
      <trkpt lat="42.87086" lon="0.48832">
        <ele>1645.1</ele>
        <time>2024-07-24T23:56:14.451Z</time>
      </trkpt>
      <trkpt lat="42.871" lon="0.48821">
        <ele>1645</ele>
        <time>2024-07-24T23:56:18.064Z</time>
      </trkpt>
      <trkpt lat="42.87111" lon="0.48818">
        <ele>1646.7</ele>
        <time>2024-07-24T23:56:22.337Z</time>
        <extensions>
          <visugpx:TrkExtension xmlns:visugpx="https://www.visugpx.com/editgpx/">
            <visugpx:node>92</visugpx:node>
            </visugpx:TrkExtension>
        </extensions>
      </trkpt>
      <trkpt lat="42.87114" lon="0.48822">
        <ele>1648.6</ele>
        <time>2024-07-24T23:56:27.356Z</time>
      </trkpt>
      <trkpt lat="42.87115" lon="0.48827">
        <ele>1650.1</ele>
        <time>2024-07-24T23:56:31.199Z</time>
      </trkpt>
      <trkpt lat="42.87113" lon="0.48836">
        <ele>1651.8</ele>
        <time>2024-07-24T23:56:35.006Z</time>
      </trkpt>
      <trkpt lat="42.87089" lon="0.48844">
        <ele>1649.7</ele>
        <time>2024-07-24T23:56:39.933Z</time>
      </trkpt>
      <trkpt lat="42.87082" lon="0.4885">
        <ele>1650</ele>
        <time>2024-07-24T23:56:42.045Z</time>
      </trkpt>
      <trkpt lat="42.8706" lon="0.48876">
        <ele>1652.2</ele>
        <time>2024-07-24T23:56:50.512Z</time>
      </trkpt>
      <trkpt lat="42.87052" lon="0.48889">
        <ele>1653.8</ele>
        <time>2024-07-24T23:56:54.869Z</time>
      </trkpt>
      <trkpt lat="42.87035" lon="0.48926">
        <ele>1658.4</ele>
        <time>2024-07-24T23:57:06.712Z</time>
      </trkpt>
      <trkpt lat="42.87019" lon="0.48956">
        <ele>1660.5</ele>
        <time>2024-07-24T23:57:14.667Z</time>
      </trkpt>
      <trkpt lat="42.87007" lon="0.48984">
        <ele>1663.4</ele>
        <time>2024-07-24T23:57:22.795Z</time>
      </trkpt>
      <trkpt lat="42.86984" lon="0.49022">
        <ele>1664.4</ele>
        <time>2024-07-24T23:57:31.774Z</time>
      </trkpt>
      <trkpt lat="42.86976" lon="0.49039">
        <ele>1665.8</ele>
        <time>2024-07-24T23:57:36.370Z</time>
      </trkpt>
      <trkpt lat="42.86962" lon="0.49091">
        <ele>1672.5</ele>
        <time>2024-07-24T23:57:52.634Z</time>
      </trkpt>
      <trkpt lat="42.86925" lon="0.49192">
        <ele>1680.4</ele>
        <time>2024-07-24T23:58:18.405Z</time>
      </trkpt>
      <trkpt lat="42.8692" lon="0.49214">
        <ele>1681.3</ele>
        <time>2024-07-24T23:58:22.964Z</time>
      </trkpt>
      <trkpt lat="42.86921" lon="0.49234">
        <ele>1682.6</ele>
        <time>2024-07-24T23:58:27.431Z</time>
        <extensions>
          <visugpx:TrkExtension xmlns:visugpx="https://www.visugpx.com/editgpx/">
            <visugpx:node>93</visugpx:node>
            </visugpx:TrkExtension>
        </extensions>
      </trkpt>
      <trkpt lat="42.86925" lon="0.49253">
        <ele>1683.4</ele>
        <time>2024-07-24T23:58:31.368Z</time>
      </trkpt>
      <trkpt lat="42.86929" lon="0.4926">
        <ele>1683.6</ele>
        <time>2024-07-24T23:58:33.001Z</time>
      </trkpt>
      <trkpt lat="42.8695" lon="0.49285">
        <ele>1686.7</ele>
        <time>2024-07-24T23:58:42.173Z</time>
      </trkpt>
      <trkpt lat="42.86959" lon="0.49292">
        <ele>1687.6</ele>
        <time>2024-07-24T23:58:45.305Z</time>
      </trkpt>
      <trkpt lat="42.86979" lon="0.49299">
        <ele>1692.8</ele>
        <time>2024-07-24T23:58:56.952Z</time>
      </trkpt>
      <trkpt lat="42.86985" lon="0.49303">
        <ele>1693.8</ele>
        <time>2024-07-24T23:58:59.479Z</time>
      </trkpt>
      <trkpt lat="42.87005" lon="0.49329">
        <ele>1695.1</ele>
        <time>2024-07-24T23:59:06.788Z</time>
      </trkpt>
      <trkpt lat="42.87016" lon="0.4934">
        <ele>1697</ele>
        <time>2024-07-24T23:59:11.754Z</time>
      </trkpt>
      <trkpt lat="42.87034" lon="0.49369">
        <ele>1698.3</ele>
        <time>2024-07-24T23:59:19.114Z</time>
      </trkpt>
      <trkpt lat="42.8704" lon="0.49374">
        <ele>1699.2</ele>
        <time>2024-07-24T23:59:21.571Z</time>
      </trkpt>
      <trkpt lat="42.87055" lon="0.49382">
        <ele>1702.5</ele>
        <time>2024-07-24T23:59:29.094Z</time>
      </trkpt>
      <trkpt lat="42.87065" lon="0.49393">
        <ele>1705.5</ele>
        <time>2024-07-24T23:59:35.820Z</time>
      </trkpt>
      <trkpt lat="42.8707" lon="0.49416">
        <ele>1704.4</ele>
        <time>2024-07-24T23:59:39.327Z</time>
      </trkpt>
      <trkpt lat="42.87073" lon="0.49422">
        <ele>1704.6</ele>
        <time>2024-07-24T23:59:40.693Z</time>
      </trkpt>
      <trkpt lat="42.87089" lon="0.49442">
        <ele>1707.9</ele>
        <time>2024-07-24T23:59:48.974Z</time>
      </trkpt>
      <trkpt lat="42.87101" lon="0.49466">
        <ele>1711.1</ele>
        <time>2024-07-24T23:59:57.046Z</time>
      </trkpt>
      <trkpt lat="42.87103" lon="0.49473">
        <ele>1711.3</ele>
        <time>2024-07-24T23:59:58.453Z</time>
      </trkpt>
      <trkpt lat="42.87103" lon="0.49501">
        <ele>1709.9</ele>
        <time>2024-07-25T00:00:02.545Z</time>
      </trkpt>
      <trkpt lat="42.87106" lon="0.49515">
        <ele>1710.5</ele>
        <time>2024-07-25T00:00:05.459Z</time>
      </trkpt>
      <trkpt lat="42.87114" lon="0.49526">
        <ele>1712.8</ele>
        <time>2024-07-25T00:00:10.715Z</time>
      </trkpt>
      <trkpt lat="42.87119" lon="0.4953">
        <ele>1713.6</ele>
        <time>2024-07-25T00:00:12.815Z</time>
      </trkpt>
      <trkpt lat="42.87127" lon="0.49532">
        <ele>1715.4</ele>
        <time>2024-07-25T00:00:16.870Z</time>
      </trkpt>
      <trkpt lat="42.8713" lon="0.49535">
        <ele>1716</ele>
        <time>2024-07-25T00:00:18.339Z</time>
      </trkpt>
      <trkpt lat="42.87132" lon="0.49551">
        <ele>1716.3</ele>
        <time>2024-07-25T00:00:21.273Z</time>
        <extensions>
          <visugpx:TrkExtension xmlns:visugpx="https://www.visugpx.com/editgpx/">
            <visugpx:node>94</visugpx:node>
            </visugpx:TrkExtension>
        </extensions>
      </trkpt>
      <trkpt lat="42.87139" lon="0.49582">
        <ele>1718</ele>
        <time>2024-07-25T00:00:28.094Z</time>
      </trkpt>
      <trkpt lat="42.87149" lon="0.49601">
        <ele>1719.2</ele>
        <time>2024-07-25T00:00:32.989Z</time>
      </trkpt>
      <trkpt lat="42.87167" lon="0.49619">
        <ele>1721.2</ele>
        <time>2024-07-25T00:00:39.799Z</time>
      </trkpt>
      <trkpt lat="42.8719" lon="0.49646">
        <ele>1722</ele>
        <time>2024-07-25T00:00:47.310Z</time>
        <extensions>
          <visugpx:TrkExtension xmlns:visugpx="https://www.visugpx.com/editgpx/">
            <visugpx:node>95</visugpx:node>
            </visugpx:TrkExtension>
        </extensions>
      </trkpt>
      <trkpt lat="42.87201" lon="0.49652">
        <ele>1722.3</ele>
        <time>2024-07-25T00:00:50.232Z</time>
      </trkpt>
      <trkpt lat="42.87215" lon="0.49653">
        <ele>1723.7</ele>
        <time>2024-07-25T00:00:54.665Z</time>
      </trkpt>
      <trkpt lat="42.87244" lon="0.49644">
        <ele>1727.6</ele>
        <time>2024-07-25T00:01:05.176Z</time>
      </trkpt>
      <trkpt lat="42.87266" lon="0.49644">
        <ele>1729.9</ele>
        <time>2024-07-25T00:01:12.247Z</time>
      </trkpt>
      <trkpt lat="42.87295" lon="0.49661">
        <ele>1731.4</ele>
        <time>2024-07-25T00:01:20.612Z</time>
      </trkpt>
      <trkpt lat="42.87308" lon="0.49665">
        <ele>1732.7</ele>
        <time>2024-07-25T00:01:24.792Z</time>
      </trkpt>
      <trkpt lat="42.87311" lon="0.49671">
        <ele>1733.6</ele>
        <time>2024-07-25T00:01:26.957Z</time>
      </trkpt>
      <trkpt lat="42.87308" lon="0.49681">
        <ele>1734.5</ele>
        <time>2024-07-25T00:01:29.586Z</time>
        <extensions>
          <visugpx:TrkExtension xmlns:visugpx="https://www.visugpx.com/editgpx/">
            <visugpx:node>96</visugpx:node>
            </visugpx:TrkExtension>
        </extensions>
      </trkpt>
      <trkpt lat="42.87292" lon="0.49705">
        <ele>1734.9</ele>
        <time>2024-07-25T00:01:35.296Z</time>
      </trkpt>
      <trkpt lat="42.87284" lon="0.4973">
        <ele>1736.4</ele>
        <time>2024-07-25T00:01:41.101Z</time>
      </trkpt>
      <trkpt lat="42.87279" lon="0.49752">
        <ele>1738.4</ele>
        <time>2024-07-25T00:01:46.802Z</time>
      </trkpt>
      <trkpt lat="42.87277" lon="0.49795">
        <ele>1740.4</ele>
        <time>2024-07-25T00:01:55.618Z</time>
        <extensions>
          <visugpx:TrkExtension xmlns:visugpx="https://www.visugpx.com/editgpx/">
            <visugpx:node>97</visugpx:node>
            </visugpx:TrkExtension>
        </extensions>
      </trkpt>
      <trkpt lat="42.87279" lon="0.49809">
        <ele>1741.2</ele>
        <time>2024-07-25T00:01:58.668Z</time>
      </trkpt>
      <trkpt lat="42.87289" lon="0.49834">
        <ele>1743.2</ele>
        <time>2024-07-25T00:02:05.177Z</time>
      </trkpt>
      <trkpt lat="42.87297" lon="0.49848">
        <ele>1744</ele>
        <time>2024-07-25T00:02:08.787Z</time>
      </trkpt>
      <trkpt lat="42.87308" lon="0.4986">
        <ele>1745.8</ele>
        <time>2024-07-25T00:02:13.704Z</time>
      </trkpt>
      <trkpt lat="42.87316" lon="0.49872">
        <ele>1747.1</ele>
        <time>2024-07-25T00:02:17.591Z</time>
      </trkpt>
      <trkpt lat="42.87436" lon="0.50093">
        <ele>1754.5</ele>
        <time>2024-07-25T00:03:09.166Z</time>
        <extensions>
          <visugpx:TrkExtension xmlns:visugpx="https://www.visugpx.com/editgpx/">
            <visugpx:node>98</visugpx:node>
            </visugpx:TrkExtension>
        </extensions>
      </trkpt>
    </trkseg>
  </trk>
</gpx>